May 2010 California Eastern District Court Cases

  Case Date
Aleurone Corporation. v. Ventria Bioscience, Incorporated 2:2010cv00501 05/28/10
Andrews Farms et al v. Calcot Ltd et al 1:2007cv00464 05/28/10
Andrews Farms et al v. Calcot Ltd et al 1:2007cv00464 05/28/10
Armstrong v. Hartley 1:2009cv01213 05/28/10
Barnes v. Denny et al 2:2007cv01380 05/28/10
Benyamini v. Johnson et al 1:2007cv00907 05/28/10
BLX Capital, LLC v. Dara Petroleum, Inc. et al 2:2009cv02356 05/28/10
Boland, Inc. v. Rolf C. Hagen (USA) Corp. 2:2008cv02201 05/28/10
Brownlee v. Clayton et al 2:2008cv00661 05/28/10
Calpine Operating Services Co., Inc. v Electrical Maintenence Consultants, Inc. 2:2009cv01495 05/28/10
Cardenas v. Adler 1:2009cv00831 05/28/10
Chess v. Felker, et al 2:2010cv01261 05/28/10
Clark v. Subia 2:2007cv00607 05/28/10
David v. High Desert State Prison et al 2:2008cv01661 05/28/10
Delgado v. Yosemite Falls Cafe, Inc. et al 1:2010cv00296 05/28/10
Dianna Cooper v. Commissioner of Social Security 1:2009cv01488 05/28/10
Doe v. University of the Pacific 2:2009cv00764 05/28/10
Dynes v. Fresno County Detention Center Maintenance Staff 1:2010cv00748 05/28/10
Dynes v. Fresno County Detention Center Maintenance Staff 1:2010cv00748 05/28/10
Edgar v. S.A. Recycling and/or Simms Metal Management et al 1:2010cv00346 05/28/10
Eichler v. Director of CDC et al 2:2006cv02894 05/28/10
Falcon v. Hense et al 1:2009cv00660 05/28/10
Garcia v. George Bailey Correctional Facility 1:2010cv00857 05/28/10
Green v. Robik 2:2008cv02581 05/28/10
Guevara v. Ralls et al 2:2009cv01132 05/28/10
Haney v. Hernandez et al 2:2010cv01324 05/28/10
Haney v. Hernandez et al 1:2010cv00903 05/28/10
Hayes v. D.K. Sisto 2:2009cv02433 05/28/10
Herring v. Diversified Adjustment Service, Inc. 1:2010cv00092 05/28/10
Hoch v. Ahlin et al 1:2010cv00874 05/28/10
Hollis v. Downing et al 2:2009cv03431 05/28/10
James R. Tapp v. Thor Industries, Inc., et al 1:2008cv01907 05/28/10
Johnson v. Phoenix Debt Management 1:2009cv00237 05/28/10
Johnson v. Solano County Sheriff Department et al 2:2007cv02031 05/28/10
Jones v. Cate 2:2009cv02169 05/28/10
Jones v. McFadden et al 1:2009cv00957 05/28/10
Jones v. PVSP, et al 1:2001cv05287 05/28/10
Keenan Hurt v. Smith et al 1:2009cv00698 05/28/10
Larson v. Conewango Products Corp. et al 1:2009cv01060 05/28/10
Lehman Brothers Holdings Inc. v. Golden Empire Mortgage, Inc. 1:2009cv01018 05/28/10
Lopez v. Schwarzenneger 2:2009cv01760 05/28/10
Magee v. Clark 1:2010cv00831 05/28/10
McDaniel v. Clay 1:2009cv01809 05/28/10
McNally et al v. Eye Dog Foundation for the Blind, Inc. et al 1:2009cv01184 05/28/10
Mester v. Dickinson et al 2:2009cv03307 05/28/10
Miller v. Commissioner of Social Security 1:2009cv01101 05/28/10
Morris et al v. City of Fresno et al 1:2008cv01422 05/28/10
Moyes v. United States 1:2010mc00021 05/28/10
Nible, et al. v. Harrington et al 1:2009cv01993 05/28/10
Noor v. Martell 2:2008cv01656 05/28/10
O'Neal v. California Department of Corrections, et al. 1:2009cv01552 05/28/10
Oscar M. Sanchez v. Commissioner of Social Security 1:2008cv01627 05/28/10
Ouzounian et al v. Veterans Administration 1:2010cv00349 05/28/10
Perryman v. Trevino 1:2009cv01886 05/28/10
Phillip W. Dunn v. Cate et al 1:2008cv00873 05/28/10
Prophet v. Clark et al 1:2009cv01066 05/28/10
Randhawa v. Skylux, Inc., et al. 2:2009cv02304 05/28/10
Rasheed v. Walker 2:2010cv00192 05/28/10
Reed v. Harrington et al 1:2010cv00387 05/28/10
Rivas et al v. California Franchise Tax Board et al 1:2008cv00942 05/28/10
Robles v. Hulburd et al 1:2009cv01054 05/28/10
Ruiz v. US Department of Education Federal Student Aid Conditional Disability Discharge, et al 2:2008cv02579 05/28/10
Shingle Springs Band of Miwok Indians v. Caballero 2:2008cv03133 05/28/10
Tilton v. MacDonald 1:2009cv00527 05/28/10
Tilton v. MacDonald 1:2009cv00527 05/28/10
Timothy Crayton v. Rochester Medical Corporation 1:2007cv01318 05/28/10
United States of America v. .41 Acres of Land, More or Less, In the County of Sutter et al 2:2010cv00791 05/28/10
United States of America v. .41 Acres of Land, More or Less, In the County of Sutter et al 2:2010cv00791 05/28/10
United States of America v. 30.60 Acres of Land, More or Less, in the County of Sutter et al 2:2010cv00789 05/28/10
United States of America v. Approximately $4,950.00 in U.S. Currency 2:2008cv00395 05/28/10
United States of America, ex rel. Sharman Wood v. Family Healthcare Network et al 1:2007cv00700 05/28/10
USA, et al v. Scott 2:2010mc00037 05/28/10
Verduzco et al v. Indymac Bank Home Loan Servicing et al 2:2009cv02371 05/28/10
Voth v Curry et al 2:2006cv02896 05/28/10
Walker v. Brand Energy Services, LLC 1:2009cv01183 05/28/10
Warsinger v. Marshall 1:2009cv00565 05/28/10
Werner v. Commissioner of Social Security 1:2009cv00104 05/28/10
Whittle v. Wells Fargo Bank, N.A., et al. 1:2010cv00429 05/28/10
Williams v. Lopez et al 1:2010cv00952 05/28/10
Wrigley v. Aquaviva et al 2:2010cv00703 05/28/10
Xiong v. Commissioner of Social Security 1:2009cv00928 05/28/10
Young v. Parks et al 2:2009cv00336 05/28/10
Abel Moreno v. James Hartley 1:2009cv00689 05/27/10
Amodo v. Homeq Servicing Corporation et al 2:2010cv00177 05/27/10
Arc Ecology, et al v United States Maritime Administration, et al 2:2007cv02320 05/27/10
Arellano v. Gutierrez 2:2010cv00193 05/27/10
Ari v. Lattimore 1:2010cv00353 05/27/10
Avila v. Cate et al 1:2009cv00918 05/27/10
Bank of the West v. M/V Sand Dollar, et al 2:2010cv00363 05/27/10
Battiste v. Velasquez et al 2:2009cv02053 05/27/10
Berrigan v. Commissioner of Social Security 1:2010cv00165 05/27/10
Borrero v. The Travelers Indemnity Company 2:2010cv00322 05/27/10
Brooks v. Whitson et al 2:2010cv00682 05/27/10
Brooks v. Whitson et al 2:2010cv00682 05/27/10
Brown v. Hubbard et al 2:2008cv02286 05/27/10
Buick v. Buick et al 2:2007cv01447 05/27/10
Burk v. Sisto 2:2008cv01916 05/27/10
C&G Farms, et al v. Lindsay Foods International, et al 1:2009cv00032 05/27/10
California Sportfishing Protection Alliance v. El Dorado Irrigation District 2:2010cv00235 05/27/10
Cantrell v. Evans 2:2007cv01440 05/27/10
Carpenter v. Sullivan, et al. 1:2007cv00114 05/27/10
Castaneda et al v. TIN INC. et al 1:2010cv00567 05/27/10
Castro v. Scribner 1:2005cv01435 05/27/10
Ceasar v. Clark 2:2010cv00392 05/27/10
Chemehuevi Indian Tribe v. Salazar et al 2:2010cv00623 05/27/10
Chess v. Dovey et al 2:2007cv01767 05/27/10
City of Fresno v. Boeing Company, et al. 1:2006cv01559 05/27/10
City of Fresno v. Boeing Company, et al. 1:2006cv01559 05/27/10
Clark, et al., v Wells Fargo, et al., 2:2010cv00827 05/27/10
Collins v. Kramer, et al 2:2007cv02709 05/27/10
Continental Casualty Company v. St. Paul Surplus Lines Insurance Company 2:2007cv01744 05/27/10
County of Sacramento et al v. Aerojet- General Corporation et al 2:2009cv01814 05/27/10
Cruz v. Aurora Loan Services et al 2:2009cv03212 05/27/10
Davis et al v. Top Flight Academy LLC et al 2:2010cv00117 05/27/10
Davis et al v. Wachovia Mortgage et al 2:2009cv01807 05/27/10
De Shazo v. Hieng et al 1:2007cv01258 05/27/10
Downs v. California Board of Prison Terms et al 1:2009cv00714 05/27/10
Edna Affholter, et. al. vs. Franklin County Water District, et.al. 1:2007cv00388 05/27/10
Edna Affholter, et. al. vs. Franklin County Water District, et.al. 1:2007cv00388 05/27/10
El Sobrante Development, LLC et al v. National Assurance Group, Inc et al 1:2008cv00455 05/27/10
Eslinger v The Donahue Bates Blakemore and Mackey Long-Term Disability Ins., et al 2:2009cv02548 05/27/10
Exxonmobil Oil Corporation, a New York Corporation 1:2009cv01498 05/27/10
Falcocchia et al v. Saxon Mortgage, Inc. et al 2:2009cv02700 05/27/10
Fearence v. Schulteis et al 1:2008cv00615 05/27/10
Fernandez et al v. Deutsche Bank National et al 2:2010cv00173 05/27/10
Fisher v. Hartley 1:2009cv00720 05/27/10
Fisher v. United States of America 1:2008cv00326 05/27/10
Gibson v. Wong et al 2:2009cv02388 05/27/10
Gil v. Yates et al 1:2009cv00917 05/27/10
Gil v. Yates et al 1:2009cv01706 05/27/10
Gomez et al v. Wachovia Mortgage FSB et al 2:2009cv02762 05/27/10
Grassi, et al v. Moody's Investors Services, et al 2:2009cv00543 05/27/10
Guardado, Jr. v. Commissioner of Social Security 1:2009cv01450 05/27/10
Guilin v. Holder 1:2009cv01865 05/27/10
Guron et al v. Aytes et al 1:2009cv00867 05/27/10
Hansen v. Hornbeak 1:2008cv01697 05/27/10
Haynes v. Hartly 1:2008cv01937 05/27/10
Henry v. Marshall 2:1994cv00916 05/27/10
Hightower v. Tilton et al 2:2008cv01129 05/27/10
In Re: Food Services Management Inc 2:2010cv01032 05/27/10
Ingram v. CSS 2:2008cv02829 05/27/10
Jackson v. California Department of Corrections & Rehabilitation et al 1:2007cv01414 05/27/10
Jaime Alberto Delgado v. Wal-Mart Stores, Inc. 1:2009cv02199 05/27/10
Jaureguito v. Feather River Community College 2:2006cv02687 05/27/10
Jennings v. County of Fresno et al 1:2010cv00928 05/27/10
Jennings v. County of Fresno et al 1:2010cv00928 05/27/10
Jennings v. Moreland et al 2:2008cv01305 05/27/10
Jennings v. Moreland et al 2:2008cv01305 05/27/10
Johnson v. Auto Finance of Sacramento, LLC et al 2:2010cv00576 05/27/10
Johnson v. Karin Cocktails, Inc. et al 2:2009cv03337 05/27/10
Johnson v. Kim et al 2:2010cv00725 05/27/10
Johnson v. Knowles 2:2008cv02995 05/27/10
Johnson v. Smith et al 2:2010cv00716 05/27/10
Johnson v. Smith et al 2:2010cv00716 05/27/10
Johnson v. Smith et al 2:2010cv00716 05/27/10
Johnson v. Yates 1:2009cv01906 05/27/10
Kelley v. Stokes 2:2005cv01713 05/27/10
Kemper v. Folsom Cordova Unified School District 2:2008cv02777 05/27/10
Kerns v. Northwestern Mutual Life Insurance Company 2:2008cv02016 05/27/10
Kononov v. Expedia Home Loans et al 2:2010cv00099 05/27/10
League to Save Lake Tahoe, et al. v. Tahoe Regional Planning Agency 2:2008cv02828 05/27/10
Lopes et al v. Vieira et al 1:2006cv01243 05/27/10
Lopez v. Hubbard, et al 2:2009cv01928 05/27/10
Lupercio v. Gonzalez 1:2008cv00012 05/27/10
McNeely v. County of Sacramento et al 2:2009cv02520 05/27/10
Meda v. Curry 1:2009cv00161 05/27/10
Munns et al v. Clinton et al 2:2010cv00681 05/27/10
Nasrawi et al v. Buck Consultants, LLC et al 1:2009cv02061 05/27/10
National Meat Association v. Brown et al 1:2008cv01963 05/27/10
Newman et al v. San Joaquin Delta Community College District et al 2:2009cv03441 05/27/10
Northern California River Watch et al 2:2008cv00791 05/27/10
Pacray v. Shea Mortgage, Inc. et al 1:2009cv01942 05/27/10
Parkison v. Butte County Sheriff's Dept. et al 2:2009cv02257 05/27/10
Perez v. Clark et al 1:2008cv00466 05/27/10
Pierce v. Gonzales et al 1:2010cv00285 05/27/10
Pobursky, et al. v. Madera County, et al. 1:2007cv00611 05/27/10
Rader et al v. Bruister et al 2:2010cv00222 05/27/10
Ramos v. Ives 2:2010cv00871 05/27/10
Randy's Trucking, Inc. et al v. National Railroad Passenger Corporation et al 1:2008cv00819 05/27/10
Rhein vs. Commissioner of Social Security 1:2009cv01754 05/27/10
Rider v. Yates et al 1:2007cv01516 05/27/10
Ruiz Food Products, Inc. v. Camino Real Foods, Inc. 1:2009cv01731 05/27/10
Ruiz v. Commissioner of Social Security 1:2009cv02087 05/27/10
Ryles v. Felker et al 2:2007cv02753 05/27/10
Salinas v. Commissioner of Social Security 1:2009cv00454 05/27/10
San Luis & Delta-Mendota Water Authority et al v. Locke et al 1:2009cv01053 05/27/10
San Luis & Delta-Mendota Water Authority et al v. Salazar et al 1:2009cv00407 05/27/10
Sanchez v. GMAC Mortgage, LLC 2:2009cv03341 05/27/10
Santamaria v. Stolc 2:2008cv01797 05/27/10
Schmidt, et al v. United States of America, et al 2:2009cv00660 05/27/10
Shelton v. Chorley 1:2007cv00560 05/27/10
Sherman v. Yolo County Sheriff 2:2006cv00016 05/27/10
Smith v. Commissioner of Social Security 2:2009cv00709 05/27/10
Smith v. People Of California et al 2:2010cv00070 05/27/10
Smith v. State of California et al 2:2005cv01257 05/27/10
Soto v. Greyhound Lines et al 2:2006cv01612 05/27/10
Soto v. Greyhound Lines et al 2:2006cv01612 05/27/10
Soto v. Hartley 1:2010cv00071 05/27/10
Tejeda v. Con-Agra Foods, Inc. 1:2006cv00644 05/27/10
Thomas Charles Schuster v. Ken Clark 1:2009cv00555 05/27/10
Thornbrough v Western Placer Unified School District 2:2009cv02613 05/27/10
Torres et al v. County of Madera et al 1:2010cv00670 05/27/10
Turner v. Sacramento County Jail 2:2009cv00117 05/27/10
United States of America v. Approximately $24,260.00 in U.S. Currency 1:2009cv01445 05/27/10
United States of America v. Real Property Located at 22 Nelsier Place, Oroville, California 2:2008cv02326 05/27/10
United States of America v. Real Property Located at 2275 Atrisco Circle, Sacramento, California 2:2008cv00989 05/27/10
United States of America v. Vacante et al 1:2008cv01349 05/27/10
Vasquez v. R & L Carriers, Inc. 2:2010cv01125 05/27/10
Victoria v. JP Morgan Chase Bank et al 2:2009cv02059 05/27/10
Wheeler v. American Tobacco Co, Inc. et al 1:2010cv00851 05/27/10
Williams v. Sun Life Assurance Company of Canada et al 1:2008cv00405 05/27/10
Wilson v. Walker et al 2:2007cv02752 05/27/10
Abel v. Martel et al 2:2009cv01749 05/26/10
Adler v. Relynet, Inc., et al., 2:2008cv01333 05/26/10
Alfaro v. Sacramento Housing and Redevelopment et al 2:2010cv01258 05/26/10
Alvarado, et al. vs. USA 1:2009cv00243 05/26/10
Armstrong v. Advanced Technology Distributors, Inc., et al. 1:2009cv01901 05/26/10
Avila, et al., v. Olivera Egg Ranch,LLC 2:2008cv02488 05/26/10
Benavente v. Hedgpeth 1:2008cv00085 05/26/10
Bond v. Ferguson Enterprises, Inc. 1:2009cv01662 05/26/10
Burton v. Commissioner of Social Security 2:2010cv01279 05/26/10
Carroll v. Liberty Life Assurance Company of Boston et al 2:2009cv02296 05/26/10
Carter v. Munoz et al 1:2007cv01736 05/26/10
Castro v. Adams 1:2007cv00871 05/26/10
Cejas v. Blanas 2:2005cv01121 05/26/10
Coleman, et al v. Schwarzenegger, et al 2:1990cv00520 05/26/10
Conchas v. Walker 2:2009cv02000 05/26/10
Cooper v. Boxer et al 2:2010cv00251 05/26/10
Cooper v. Cate et al 1:2010cv00899 05/26/10
Crayton v. Hedgpeth et al 1:2008cv00621 05/26/10
Debbad v. JPMorgan Chase Bank, et al., 2:2009cv01998 05/26/10
Dobson v. Commissioner of Social Security 2:2009cv01460 05/26/10
Edna Affholter, et. al. vs. Franklin County Water District, et.al. 1:2007cv00388 05/26/10
Forrister v. Woodford 1:2005cv00170 05/26/10
Freeman v. Hornbeck 1:2009cv01123 05/26/10
Funtanilla v. Tristan, et al 1:2002cv06001 05/26/10
Gallagher v. Commissioner of Social Security 1:2010cv00942 05/26/10
Gamez v. Gonzalez, et al. 1:2008cv01113 05/26/10
Gathenji v. Autozone, Inc., et al. 1:2008cv01941 05/26/10
Gholar v. Yates 1:2010cv00036 05/26/10
Graham v. Runnels, et al 2:2007cv02291 05/26/10
Gray v. Finn 2:2007cv01513 05/26/10
Harris v. High Desert State Prison et al 2:2010cv01177 05/26/10
Harris v. High Desert State Prison et al 2:2010cv01031 05/26/10
Henderson v. California Department of Corrections and Rehabilitations, et al 1:2009cv01402 05/26/10
Henderson v. Martel 2:2009cv02189 05/26/10
Hollis v. Downing 1:2010cv00950 05/26/10
Hollis v. Downing et al 2:2009cv03431 05/26/10
Hollis v. Downing et al 2:2009cv03431 05/26/10
House v. Cal State Mortgage Company Inc et al 1:2008cv01880 05/26/10
Howell v. Subia et al 1:2007cv01738 05/26/10
James v. Scribner et al 1:2007cv00880 05/26/10
Joe Hand Promotions, Inc. v. Morris et al 1:2009cv01374 05/26/10
Johnson et al v Couturier, Jr. et al 2:2005cv02046 05/26/10
Johnson v. Knowles 2:2008cv02995 05/26/10
Johnson v. Yates et al 2:2006cv00554 05/26/10
Jones v. Farley 2:2010cv01169 05/26/10
Kaur et al v. Mayorkas 2:2010cv00262 05/26/10
Khan et al v. Napolitano et al 2:2009cv02617 05/26/10
Kimerer v. Clark 2:2009cv01839 05/26/10
L.H. et al v. Schwarzenegger et al 2:2006cv02042 05/26/10
Leramo v. Premier Anasthesia Medical Group et al 1:2009cv02083 05/26/10
Lexington Insurance Company v. Sentry Select Insurance Company 1:2008cv01539 05/26/10
Lucas v. Hartley 1:2008cv01806 05/26/10
Majors v. Ayers, et al 2:1999cv00493 05/26/10
Plaintiff v. Defendant 2:2008cv02769 05/26/10
McGee v. Mule Creek State Prison Warden 2:2009cv02127 05/26/10
McNeely v. County of Sacramento et al 2:2009cv02520 05/26/10
Montgomery et al v. Buege et al 2:2008cv00385 05/26/10
Moore v. Clovis II, LLC et al 1:2010cv00193 05/26/10
Moore v. Desmond et al 1:2010cv00278 05/26/10
Moore v. F & M Restaurants, Inc. et al 1:2009cv01930 05/26/10
Moran v. Dovey et al 1:2008cv00016 05/26/10
Njoku v. Commissioner of Social Security 1:2010cv00948 05/26/10
Ortiz v. Yates 2:2009cv02529 05/26/10
Patriot Rail Corp. v. Sierra Railroad Company 2:2009cv00009 05/26/10
Perez v. Commissioner of Social Security 1:2010cv00944 05/26/10
Petras v. A-1 Moving and Storage 2:2009mc00010 05/26/10
Poon v. Kern County Sheriff's Deputy et al 1:2010cv00028 05/26/10
Scott v. Sisto 2:2008cv02370 05/26/10
See v. Commissioner of Social Security 1:2010cv00941 05/26/10
Singleton v. Hedgepath et al 1:2008cv00095 05/26/10
Smith v. Litton Loan Servicing, et al, 2:2009cv03472 05/26/10
Smith v. City of Vallejo et al 2:2007cv01707 05/26/10
Sprouts Cafe, Inc. et al v. Pierce et al 2:2010cv00574 05/26/10
Turner v. Prieto et al 2:2010cv00756 05/26/10
United States of America v. Approximately $180,534.29 in U.S. Currency seized from Safe Credit Union Account Number 342139-00 et al 2:2008cv02148 05/26/10
United States of America v. Castle 2:2010cv00613 05/26/10
United States v. Carey et al 2:2005cv02176 05/26/10
United States v. Carey et al 2:2005cv02176 05/26/10
USA v. Approximately $75,750.00 in U.S. Currency et al 2:2010cv01272 05/26/10
USA v. Approximately $75,750.00 in U.S. Currency et al 2:2010cv01272 05/26/10
Valdivia, et al v. Schwarzenegger, et al 2:1994cv00671 05/26/10
Wade Bush v. James Yates, Et Al. 1:2006cv01904 05/26/10
Wagner v. Posner et al 2:2009cv03166 05/26/10
Wagner v. Posner et al 2:2009cv03166 05/26/10
Wallis et al v. Centennial Insurance Company Inc et al 2:2008cv02558 05/26/10
Ward v. Department of Agriculture et al 2:2010cv00376 05/26/10
Williams v. Finn 2:2009cv01691 05/26/10
Young v. California Department of Corrections and Rehabilitation et al 1:2007cv01121 05/26/10
Ahmad v. Wells Fargo Bank N.A. et al 2:2009cv01200 05/25/10
Almunir v. Aurora Loan Service, LLC et al 2:2010cv00733 05/25/10
Alvarado, et al. vs. USA 1:2009cv00243 05/25/10
ARC Students for Liberty Campaign v. Los Rios Community College District 2:2009cv02446 05/25/10
Atchison Topeka, et al v. Hercules Inc, et al 1:1996cv05879 05/25/10
Bank of the West v. M/V Sand Dollar, et al 2:2010cv00363 05/25/10
Barrientos v. Land O'Lakes, Inc. 1:2009cv01340 05/25/10
Boeing Company v. Movassaghi 2:2009cv03165 05/25/10
Bolin v. Jill L. Brown, et al 1:1999cv05279 05/25/10
Bridges v. Hubbard et al 2:2009cv00940 05/25/10
Brooks v. Legislative Bill Room 2:2010cv00379 05/25/10
Brooks v. Legislative Bill Room 2:2010cv00379 05/25/10
Bryan E Ransom v. Johnson, Et Al. 1:2005cv00086 05/25/10
Coalition for a Sustainable Delta et al v. Carlson et al 1:2008cv00397 05/25/10
Coxey v. Commissioner of Social Security 2:2009cv02530 05/25/10
Cruz v. Michaels et al 2:2010cv01162 05/25/10
Curtis v. Buckley et al 1:2006cv00230 05/25/10
Dean v. Cavagnaro et al 2:2009cv01339 05/25/10
Dobson v. Commissioner of Social Security 2:2009cv01460 05/25/10
Donte v. Swingle et al 2:2010cv00299 05/25/10
Dorrell v. Commissioner of Social Security 2:2009cv00112 05/25/10
ERA Franchise Systems, Inc. v. Gold Nugget Realtors, Inc. et al 2:2007cv00982 05/25/10
Feezor v. OCAT, Inc. et al 2:2010cv00887 05/25/10
Feezor v. OfficeMax North America, Inc. et al 2:2010cv00885 05/25/10
Feezor v. Ross Dress For Less, Inc. et al 2:2009cv03350 05/25/10
Fontana v. Commissoner of Social Security 1:2010cv00932 05/25/10
Foster v. Cole 2:2003cv01113 05/25/10
Franklin Fueling Systems, Inc. v. Veeder Root Company 2:2009cv00580 05/25/10
Franklin Fueling Systems, Inc. v. Veeder Root Company 2:2009cv00580 05/25/10
Fred King v. Corcoran State Prison 1:2010cv00878 05/25/10
Garcia v. Commissioner of Social Security 1:2009cv01629 05/25/10
Green v. Commissioner of Social Security 1:2010cv00935 05/25/10
Green v. PLM Lenders et al 2:2010cv00499 05/25/10
Gunn v. Tilton et al 1:2008cv01038 05/25/10
Harris v. Homeq Servicing 2:2010cv00483 05/25/10
Hazle vs Crofoot, et al 2:2008cv02295 05/25/10
Herrera v. Wheeler et al 2:2010cv01181 05/25/10
Jimenez v. Commissioner of Social Security 1:2009cv01371 05/25/10
Jo v. Six Unknown Names Agents et al 1:2010cv00912 05/25/10
Johnson v. JSSA Markets, Incorporated et al 2:2009cv03235 05/25/10
Johnson v. McCartney 2:2009cv03056 05/25/10
Jones v. Felker et al 2:2009cv03092 05/25/10
Jones v. Knowles et al 2:2007cv00404 05/25/10
Kemper vs Catholic Healthcare West 2:2006cv00295 05/25/10
Lara v. Hartley 2:2009cv01966 05/25/10
Larsen v. Commissioner of Social Security 1:2010cv00936 05/25/10
Lea v. NCB Management Services, Inc. 1:2010cv00598 05/25/10
Plaintiff v. Defendant 2:2008cv02769 05/25/10
Maverick Asphalt, Inc. v. Windsor Fuel Company et al 1:2010cv00569 05/25/10
McAllister v. Gunja et al 1:2006cv00082 05/25/10
McClain v. Gonzales et al 1:2007cv00945 05/25/10
Mianta McKnight v. John Monday 1:2009cv01315 05/25/10
Moreno v. American Association of Retired Persons 2:2010cv00471 05/25/10
Myrick v. Ives et al 2:2010cv01085 05/25/10
Nesbitt v. Warabayshi, et al 2:2003cv02243 05/25/10
Norwood v. Robinson et al 1:2008cv00172 05/25/10
Nunnes v. Barnhart 2:2006cv01620 05/25/10
Oliver v. Carey et al 2:2006cv00390 05/25/10
Phillippi v. AstraZeneca Pharmaceuticals LP et al 2:2008cv02445 05/25/10
Phillips v. The United States Government 2:2009cv01535 05/25/10
Pok v. Hedgpeth 1:2008cv01029 05/25/10
Q1, LLC et al v. County of Sacramento et al 2:2008cv01564 05/25/10
Rasheed v. Department of Justice 2:2010cv00013 05/25/10
Ratcliff v. Commissioner of Social Security 2:2010cv01244 05/25/10
Roberts v. Hartley 1:2008cv01093 05/25/10
Rodella v. Jackson et al 2:2009cv00794 05/25/10
Roosevelt v. McDonald 2:2010cv01147 05/25/10
Ryles v. Felker et al 2:2007cv02753 05/25/10
Saesee v. People of the State of California 1:2010cv00814 05/25/10
Sharp v. Morrison et al 1:2007cv00458 05/25/10
Spicer, et al. v. California Business Bureau, Inc. 1:2009cv01246 05/25/10
Stickler v. Burkard 2:2008cv00701 05/25/10
Tate v. Marsh, et al 2:2010cv01176 05/25/10
The Raisin Bargaining Association et al v. Hartford Casualty Insurance Company 1:2010cv00370 05/25/10
Tracy Yu-Santos v. Ford Motor Company et al 1:2006cv01773 05/25/10
Treglia v. Director of California Department of Corrections et al 2:2009cv00352 05/25/10
Turner v. Douglas et al 2:2009cv03445 05/25/10
Turner v. Pfizer, Inc. et al 1:2010cv00288 05/25/10
United States of America v. Approximately $129,707.00 in U.S. Currency et al 2:2007cv00692 05/25/10
United States of America v. Bowden 1:2010cv00700 05/25/10
United States of America v. Thomas 2:2010cv00652 05/25/10
Uribe v. McKesson et al 1:2008cv01285 05/25/10
Van Horn vs. Hornbeak, et al. 1:2008cv01622 05/25/10
Vlasich v. Fishback, et al 1:2005cv01615 05/25/10
Warner v. McMahon et al 2:2008cv01144 05/25/10
West v. Pfizer Inc. et al 1:2010cv00289 05/25/10
Williams v. State of California, Department of Corrections and Rehabilitation et al 2:2009cv02416 05/25/10
Wilson v. First Franklin Financial Corp. 2:2008cv02572 05/25/10
Wilson v. McDonald et al 2:2010cv00721 05/25/10
Wilson v. McDonald et al 2:2010cv00721 05/25/10
Zanyk v. Pfizer Inc. et al 1:2010cv00287 05/25/10
Acosta v. Suryadevara 1:2008cv01238 05/24/10
Archer vs. Solano County, et al. 2:2006cv00493 05/24/10
Benedict Bato v. James Hartley 1:2009cv00893 05/24/10
Black v. Stafford et al 2:2010cv00567 05/24/10
Blackwell v. Commissioner of Social Security 1:2010cv00918 05/24/10
Bremer v. Commissioner of Social Security 2:2009cv02890 05/24/10
Brown v. GMAC Mortgage, LLC et al 2:2009cv03293 05/24/10
Burley v. San Joaquin County Sheriff's Office et al 2:2009cv01657 05/24/10
Burton v. McDonald 2:2010cv01281 05/24/10
Burton v. McDonald 1:2010cv00904 05/24/10
Byrd v. Lynn et al 2:2010cv00839 05/24/10
Carr v. California Department of Corrections & Rehabilitation et al 2:2009cv00826 05/24/10
Chappell v. Neubarth et al 1:2006cv01378 05/24/10
Chepel, et al v. Cohen, et al 2:2009cv03548 05/24/10
Coalition for a Sustainable Delta v. United States Department of Interior, et al 1:2009cv01471 05/24/10
Colon v. Wilson 2:2010cv00187 05/24/10
Cosby v. AutoZone, Inc. et al 2:2008cv00505 05/24/10
Craig vs Commissioner of Social Security 2:2008cv02676 05/24/10
Dairy America, Inc. v. New York Marine and General Insurance Company et al 1:2007cv00537 05/24/10
Davis v. Walker et al 2:2009cv00832 05/24/10
Doe v. University of the Pacific 2:2009cv00764 05/24/10
Easley v. County of El Dorado Probation Department et al 2:2008cv01432 05/24/10
Faalevao v. Mechem et al 1:2010cv00688 05/24/10
Faalevao v. Mechem et al 1:2010cv00688 05/24/10
Flores v. Commissioner of Social Security 1:2010cv00919 05/24/10
Fred King v. Corcoran State Prison 1:2010cv00878 05/24/10
Fred King v. Walden House 1:2010cv00879 05/24/10
Fred King v. Walden House 1:2010cv00879 05/24/10
Galvan v. Gonzalez 1:2010cv00665 05/24/10
Garcia v. Clark 2:2010cv00971 05/24/10
Garcia, et al. v. County of Fresno, et al. 1:2006cv00940 05/24/10
German v. Commissioner of Social Security 2:2009cv02976 05/24/10
Giraldes v. Roche et al 2:2006cv02277 05/24/10
Gonzales v. Yates et al 1:2008cv00684 05/24/10
Goodwin v. California Reconveyance Company et al 2:2009cv03191 05/24/10
Gudino v. Adams, et al. 1:2005cv00954 05/24/10
Haynes v. Sisto et al 2:2008cv02177 05/24/10
Hoover v. Commissioner of Social Security 2:2009cv02586 05/24/10
Howard v. Lopez 1:2010cv00541 05/24/10
Jacobs v. Genesco, Inc. 2:2008cv01666 05/24/10
Jeffries v. Hedgpeth 1:2008cv01501 05/24/10
Jimenez v. Commissioner of Social Security 1:2009cv01371 05/24/10
Johnson v. Commissioner of Social Security 2:2008cv03041 05/24/10
Johnson v. JP Morgan Chase Bank et al 1:2008cv00081 05/24/10
Johnston v. The City of Red Bluff, et al 2:2009cv01353 05/24/10
Lanin v. Greenpoint Mortgage Funding, Inc. et al 2:2009cv02461 05/24/10
Lau v. California Government Code 68635 2:2010cv00297 05/24/10
Lau v. Lockyer 2:2009cv03146 05/24/10
Lautiej v. Kmart 2:2009cv03315 05/24/10
Lumpkin Williams v. Dr. John Garcia et al 1:2007cv01065 05/24/10
Marty v. Wells Fargo Bank et al 2:2010cv00555 05/24/10
McCullough v. Federal Bureau of Prisons, et al 1:2006cv00563 05/24/10
McGill v. Wachovia Mortgage Bank, FSB et al 2:2009cv02002 05/24/10
Medical Benifits administrators, Inc. vs. Sierra Railroad Company 2:2006cv02408 05/24/10
Miller v. Commissioner of Social Security 1:2009cv01257 05/24/10
Morrison v. Just et al 2:2009cv01544 05/24/10
Muldrew, et al. v. County of Fresno, et al. 1:2009cv00023 05/24/10
Orecchia v. Commissioner of Social Security 1:2009cv01620 05/24/10
Ortega v. Yates et al 1:2009cv01476 05/24/10
Pacheco v. Paul Financial, LLC et al 2:2010cv00085 05/24/10
Pierce v. Gonzales et al 1:2010cv00285 05/24/10
Prather v. CSS 2:2008cv01476 05/24/10
Register v. Salinas et al 2:2010cv00889 05/24/10
Rouser v. White, et al 2:1993cv00767 05/24/10
Rowland v. Commissioner of Social Security 1:2010cv00917 05/24/10
Rucker v. Sisto 2:2008cv01856 05/24/10
Sequoia ForestKeeper vs. U.S. Forest Service, et al. 1:2009cv00392 05/24/10
Silvas v. Commissioner of Social Security 1:2009cv00030 05/24/10
Sisneroz v. Mayberg et al 1:2010cv00876 05/24/10
Slaughter v. State of California 2:2010cv01143 05/24/10
Smith v. JPMorgan Chase Bank, N.A et al 2:2010cv00484 05/24/10
Somera, et al. v. Indymac Federal Bank, FSB, et al. 2:2009cv01947 05/24/10
Terrell v. Commissioner of Social Security 1:2010cv00921 05/24/10
Tracy Yu-Santos v. Ford Motor Company et al 1:2006cv01773 05/24/10
United States of America v. Sierra Pacific Industries et al 2:2009cv02445 05/24/10
United States of America v. Bowden 1:2010cv00700 05/24/10
Vasquez v. The People of the State of California 2:2010cv01189 05/24/10
Verduzco et al v. Indymac Bank Home Loan Servicing et al 2:2009cv02371 05/24/10
Vlasich v. Fishback, et al 1:2005cv01615 05/24/10
Walker v. Commissioner of Social Security 1:2010cv00920 05/24/10
Westerfield v. Spinks et al 2:2008cv02457 05/24/10
Wilson v. Commissioner of Social Security 1:2009cv01714 05/24/10
Yang v. Commissioner of Social Security 1:2009cv01495 05/24/10
Ahlenius v. Ives 2:2010cv00009 05/21/10
Alvin Souza v. Fernandes et al 1:2010cv00832 05/21/10
Ari v. Lattimore 1:2010cv00008 05/21/10
Battershell, et al., v. SMUD et al 2:2009cv02533 05/21/10
Bermudez v. Tilton 1:2009cv00275 05/21/10
Bond v. Rimmer, et al 2:1999cv02150 05/21/10
Branco v. Credit Collection Services Inc. 1:2010cv00881 05/21/10
Branco v. Credit Collection Services Inc. 2:2010cv01242 05/21/10
Broussard v. Chrones, et al 2:2009cv02506 05/21/10
CA Dept Toxic Sub v. Brighton Oil Co, et al 2:2002cv00018 05/21/10
Central Valley Ranch, LLC et al v. World Wide Investments, LLC II et al 1:2010cv00020 05/21/10
Chatman v. Felker, et al 2:2003cv02415 05/21/10
Chepel, et al v. Cohen, et al 2:2009cv03548 05/21/10
Cooper v. Kaur, et al 2:2010cv01057 05/21/10
Cooper v. Kaur, et al 2:2010cv01057 05/21/10
Cortes Gene v. Cortes 1:2005cv01359 05/21/10
Couglin v. California Dept of Corrections and Rehabilitation, et al., 2:2008cv02772 05/21/10
Crosby v. Commissioner of Social Security 1:2009cv01764 05/21/10
Deandre Shepard v. F. Gonzalez 1:2010cv00201 05/21/10
Dornay v. Commissioner of Social Security 1:2008cv00036 05/21/10
Dorrough v. Gonzalez et al 1:2008cv00634 05/21/10
Dungan v. Barnes 2:2010cv01191 05/21/10
Dynes v. Fresno Detention Center Medical Staff Department 1:2010cv00653 05/21/10
Dynes v. Medina, et al 1:2008cv00136 05/21/10
Elmore v. Arong et al 2:2007cv01463 05/21/10
Elseth v. Speirs, et al 2:2008cv02890 05/21/10
Fenenbock v. Dir of Corrections 2:1997cv01731 05/21/10
Finley v. Uribe, Jr. 1:2010cv00868 05/21/10
Frazier v. Farmon 2:1997cv02196 05/21/10
Freedom from Religion Foundation et al v. Geithner et al 2:2009cv02894 05/21/10
Fuentez v. Brown, et al 1:2002cv05948 05/21/10
Galvez v. Hartley 2:2010cv00485 05/21/10
Garcia v. Martel 2:2009cv02804 05/21/10
Gilmore et al v. Union Pacific Railroad Company, et al., 2:2009cv02180 05/21/10
Gorton v. Todd et al 2:2008cv03069 05/21/10
Grafton v. Hornbeak, et al. 1:2008cv01037 05/21/10
Guzman v. Commissioner of Social Security 2:2009cv02084 05/21/10
Hamby v. Farmon 2:1997cv00164 05/21/10
Hardge v. Alameida, et al. 1:2005cv00718 05/21/10
Harper v. Sisto et al 2:2008cv01410 05/21/10
Harris v. Horel 2:2007cv00939 05/21/10
Harris v. Lockyer 2:2004cv01906 05/21/10
Higgings v. Brusco Tug And Barge, Inc. et al 2:2008cv02300 05/21/10
Hillblom et al v. County of Fresno et al 1:2007cv01467 05/21/10
Holt v. Scribner, et al. 1:2006cv01719 05/21/10
Hunter vs. Tilton, et al., 2:2008cv01460 05/21/10
Ivory v. Tilton, et al. 1:2009cv01272 05/21/10
Jackson v. Norberg et al 2:2008cv02121 05/21/10
Jase v. Yates et al 1:2009cv00371 05/21/10
Jaureguito v. Feather River Community College 2:2006cv02687 05/21/10
Johnson v. Suyehiro et al 2:2010cv00999 05/21/10
Johnson v. Yates 2:2009cv00850 05/21/10
Khalafala v. Kramer et al 2:2006cv01152 05/21/10
Lamon v. Director, California Department of Corrections et al 2:2006cv00156 05/21/10
Larshin v. Lopez 2:2010cv00835 05/21/10
Lee v. Carey et al 2:2006cv00813 05/21/10
Lima v. Opperud, et al 2:2008cv00271 05/21/10
MacCarlie v. Lewis 2:2000cv01830 05/21/10
Martin v. Commissioner of Social Security 2:2009cv01017 05/21/10
Martinez v. Adams et al 1:2009cv00899 05/21/10
Matthew v. Lahey et al 2:2009cv02415 05/21/10
Mattox v. Barnhart 2:2006cv01698 05/21/10
McCue et al v. South Fork Union School District et al 1:2010cv00233 05/21/10
Mesnaoui v. Christopher, et al., 2:2010cv01129 05/21/10
Miguel Angel Albarran v. Thomas De Santos 1:2008cv01703 05/21/10
Miller v. Rufion, et al 1:2008cv01233 05/21/10
Monday v. Saxon Mortgage Services, Inc. et al 2:2010cv00989 05/21/10
Munson v. State of California 2:2009cv00478 05/21/10
Najar v. Felker et al 2:2009cv02893 05/21/10
Olivas v. Grounds 1:2010cv00897 05/21/10
Olivas v. Grounds 1:2010cv00897 05/21/10
Pamer v. Schwarzenegger et al 2:2007cv01902 05/21/10
Perez v. Commissioner of Social Security 2:2009cv00628 05/21/10
Rael v. Commissioner of Social Security 2:2008cv01868 05/21/10
Ranteesi v. Grounds 2:2010cv00439 05/21/10
Reynolds v. Gerstel et al 1:2009cv00680 05/21/10
Rosales, et al v. Butler, et al 2:2003cv00230 05/21/10
Rotroff v. Ahlin et al 1:2009cv02021 05/21/10
Sampson v U.S. Court of Appeals 2:2010cv00405 05/21/10
Saysourivong v. Runnels 2:2003cv01747 05/21/10
Shafer v. Commissioner of Social Security 2:2009cv00383 05/21/10
Simental v. On Habeas Corpus 1:2009cv02077 05/21/10
Simpson v. The People Of The State Of California 1:2009cv00896 05/21/10
Singleton v. Hedgepath et al 1:2008cv00095 05/21/10
Stansbury v. United States Government et al 1:2009cv01043 05/21/10
Terry v. Hiviland et al 2:2010cv00068 05/21/10
Trevino v. Mc Bride et al 1:2008cv01649 05/21/10
Trotter v. Schwarzenegger et al 2:2008cv00693 05/21/10
Turner v. Lawson et al 2:2010cv00057 05/21/10
Valdez v. Paul Law Offices 1:2009cv01353 05/21/10
Vasquez v Sisto, et al 2:2009cv00242 05/21/10
Walker v. CA Dept of Corrections & Rehabilitation, et al 2:2009cv00569 05/21/10
Walker v. State of California et al 2:2009cv01658 05/21/10
Washington v. Cate 1:2009cv01834 05/21/10
West v. Hartley 2:2009cv00260 05/21/10
Williams v. Rios 1:2010cv00143 05/21/10
Williams v. Salinas 2:2009cv01612 05/21/10
Williams v. Tate et al 2:2008cv02242 05/21/10
Willis v. Lappin et al 1:2009cv01703 05/21/10
Young v. Mandeville, et al 2:2001cv02360 05/21/10
Zapata v. Flintco Inc., et al 2:2009cv03555 05/21/10
Acosta et al v. Tourner et al 1:2009cv01560 05/20/10
Alexander v. Fitzgerald et al 2:2009cv03368 05/20/10
Alfaro v. Bank of America 2:2010cv00891 05/20/10
Arroyo v. Gordon & Wong Law Group, P.C. et al 1:2009cv02150 05/20/10
Aspex Eyewear, Inc. v. Vision Service Plan et al 2:2010cv00632 05/20/10
Baker v. Solano County Jail et al 2:2010cv01208 05/20/10
BLACKMAN v. HEDRICK et al 1:2010cv00805 05/20/10
Burton v. CSS 1:2007cv01481 05/20/10
Casey v. Metropolitan Life Insurance Company 1:2008cv01811 05/20/10
Casillas v. Aurora Loan Services LLC 1:2009cv01595 05/20/10
Casillas v. Aurora Loan Services LLC 1:2009cv01595 05/20/10
Chappell v. Perez et al 2:2009cv01465 05/20/10
Coleman v. Commissioner of Social Security 1:2008cv01694 05/20/10
Curtis v. Buckley et al 1:2006cv00230 05/20/10
Dairy America, Inc. v. New York Marine and General Insurance Company et al 1:2007cv00537 05/20/10
Dalrick A. Henry v. Eliud Chapa 1:2007cv00336 05/20/10
Dalrick A. Henry v. Eliud Chapa 1:2007cv00336 05/20/10
Dalrick A. Henry v. Eliud Chapa 1:2007cv00336 05/20/10
Dalrick A. Henry v. Eliud Chapa 1:2007cv00336 05/20/10
Davis v. Junious 2:2009cv03510 05/20/10
de Vries v. Board of Prison Hearings et al 2:2007cv01926 05/20/10
Dodgion v. Hartley 2:2009cv02696 05/20/10
Douglas v. Sacramento County et al 2:2009cv01038 05/20/10
Drips v Law Offices of Laurence A. Hecker, et al., 2:2009cv02332 05/20/10
Energy 2001 v. Pacific Insurance Company Limited Incorporated et al 2:2010cv00415 05/20/10
Estate of Matthew McEvers et al v. County of Sacramento et al 2:2006cv02161 05/20/10
Estate of Matthew McEvers et al v. County of Sacramento et al 2:2006cv02161 05/20/10
Fahie v. Mercy Hospital et al 1:2009cv01024 05/20/10
Fradenburg vs Commissioner of Social Security 2:2009cv03064 05/20/10
Gamez v. Gonzalez, et al. 1:2008cv01113 05/20/10
Garibyan v. County of Fresno et al 1:2008cv00390 05/20/10
Gaston v. Clark 1:2010cv00867 05/20/10
Graff v. Finn et al 2:2007cv01647 05/20/10
Guancione v. Stumpf, et al. 1:2010mc00025 05/20/10
Guevara v. Ralls et al 2:2009cv01132 05/20/10
Indio v. Wyeth, Inc. (f/k/a American Home Products) et al 1:2010cv00295 05/20/10
Jacobs v. Reed, et al., 2:2010cv00913 05/20/10
Jacoby et al v. Robins et al 2:2009cv03185 05/20/10
Jewett v. City of Sacramento Fire Dept., et al., 2:2010cv00556 05/20/10
Johnson v. Hollywood Entertainment Corporation et al 2:2010cv00321 05/20/10
KZSA Broadcasting, Inc v. Immaculate Heart Radio Educational Broadcasting, Inc. et al 2:2010cv01213 05/20/10
Lemus v. Commissioner of Social Security 1:2009cv01146 05/20/10
Luo v. Napolitano et al 2:2009cv03425 05/20/10
M. et al v. Drycreek Joint Elemtnary School District et al 2:2010cv00944 05/20/10
Mammy v. Holder et al 1:2010cv00885 05/20/10
Mammy v. Holder et al 1:2010cv00885 05/20/10
Manlangit et al v. National City Mortgage et al 2:2010cv01225 05/20/10
Marshall v. Solano County Sherif, et al 2:2004cv01657 05/20/10
McDowell v. Commisioner of Social Security 2:2009cv01293 05/20/10
McGee v. State of California 2:2009cv00740 05/20/10
Mitchell v. Hernandez et al 1:2007cv01322 05/20/10
Montgomery v. Chief Medical Office 2:2009cv02705 05/20/10
Montgomery v. Chief Medical Office 2:2009cv02705 05/20/10
Moreno v. Medina et al 2:2008cv01344 05/20/10
Moten v. Adams et al 1:2007cv00924 05/20/10
Muhammad v. Sisto et al 2:2010cv00143 05/20/10
North View Estates v. Yreka Holdings, et al 2:2008cv02230 05/20/10
O'Neil v. Clark 1:2010cv00666 05/20/10
Osei v. GMAC Mortgage et al 2:2009cv02534 05/20/10
Parker v. United States Department of Justice, et al 2:2010cv00065 05/20/10
Pickens v. Commissioner of Social Security 2:2010cv01201 05/20/10
Quintana v. Commissioner of Social Security 2:2009cv01056 05/20/10
Rhoades v. Cambra, et al 1:2002cv05476 05/20/10
Riel v. Woodford 2:2001cv00507 05/20/10
Rodriguez v. City of Fresno et al 1:2009cv01176 05/20/10
Seefeldt v. California Forensic Medical Group et al 2:2008cv03123 05/20/10
Slama v. City of Madera, et al 1:2008cv00810 05/20/10
Smith v. Tucker 2:2009cv00993 05/20/10
Sophia Lopez v. Johnson et al 1:2009cv02174 05/20/10
Stockton v. Ortiz et al 1:2009cv02227 05/20/10
Suniga v. McDonald 1:2010cv00090 05/20/10
Taylor v. State of California Department of Corrections et al 2:2009cv00024 05/20/10
The Council For Education v. California Attorney General et al 2:2009cv01503 05/20/10
Turner v. Yolo County Sheriff's Department 2:2010cv00554 05/20/10
Turner v. Yolo County Sheriff's Department 2:2010cv00554 05/20/10
United States Department of Justice vs. Rajendra Jamnadas 1:2007cv00491 05/20/10
United States Equal Employment Opportunity Commission v. American Laser Centers, LLC et al 1:2009cv02247 05/20/10
United States of America v. Approximately $8,772.00 in U.S. Currency 1:2009cv01711 05/20/10
United States of America v. Herrera 2:2010mc00051 05/20/10
United States of America v. Jones 1:2009mc00033 05/20/10
United States of America v. Vacante et al 1:2008cv01349 05/20/10
Vandervall v. Feltner et al 2:2009cv01576 05/20/10
Villasenor v. Martell 2:2009cv02324 05/20/10
Wiley v. Ralls et al 1:2010cv00506 05/20/10
Williams v. Knowles 1:2003cv05819 05/20/10
Yeager vs. Yeager, et al 2:2006cv01196 05/20/10
Zieske v. Vision Financial Network, et al 2:2010cv00769 05/20/10
Acosta v. Suryadevara 1:2008cv01238 05/19/10
Adoma v. The University of Phoenix, Inc. et al 2:2010cv00059 05/19/10
Altmann v. Indymac Federal Bank, et al 2:2009cv02361 05/19/10
Battershell, et al., v. SMUD et al 2:2009cv02533 05/19/10
Bennett v. City of Fairfield et al 2:2009cv00244 05/19/10
Bourkov v. Bank of America Corporation et al 2:2010cv01028 05/19/10
Bowman v. Mortgagetree Lending, Inc. et al 1:2008cv00119 05/19/10
Brown v. Adams et al 1:2008cv01116 05/19/10
Brown v. Horel 2:2008cv01401 05/19/10
Buckman et al v. Downey Savings and Loan Association 2:2009cv01843 05/19/10
Carroll v. Valley State Prison for Women 2:2010cv00159 05/19/10
Carter v. Fernandez et al 1:2008cv01841 05/19/10
Cartwright v. Youngblood 1:2010cv00839 05/19/10
Chand v. Monumental Life Insurance Company 2:2010cv00082 05/19/10
Clay v. Walker et al 2:2009cv02899 05/19/10
Collins et al v. The Planning Commission of The City of Madera, California et al 1:2010cv00430 05/19/10
Cooley v. Hartley 1:2007cv01872 05/19/10
Cordeiro v. Sysco Food Services of Sacramento, Inc. 2:2010cv00588 05/19/10
Dairy America, Inc. v. New York Marine and General Insurance Company et al 1:2007cv00537 05/19/10
Dall v. Wyeth, Inc., et al 1:2010cv00319 05/19/10
Dalrick A. Henry v. Eliud Chapa 1:2007cv00336 05/19/10
Delgado v. Commissioner of Social Security 1:2009cv01819 05/19/10
Delgado v. DW Investments, Inc. et al 1:2009cv02208 05/19/10
Demos v. United States of America, et al 2:2010cv01003 05/19/10
Dicey v. Harrison, W. R., et al. 2:2008cv02608 05/19/10
Duff v. Solano County Sheriff's Department 2:2009cv01053 05/19/10
Eddie Holtzclaw v. Certainteed Corporation 1:2009cv01599 05/19/10
Eric Lavelle Williams v. Unknown 1:2009cv02102 05/19/10
Fahie v. Mercy Hospital et al 1:2009cv01024 05/19/10
Foster v. Cole 2:2003cv01113 05/19/10
Garcia v. Martel 2:2008cv03099 05/19/10
Gil v. Yates et al 1:2009cv01706 05/19/10
Grant v. State of California 2:2010cv00175 05/19/10
Grant v. Swartzinager et al 2:2007cv02700 05/19/10
Grill v. Quinn 2:2010cv00757 05/19/10
Hernandez v. Wagner 1:2010cv00313 05/19/10
Herrera v. Giampietro et al 1:2009cv01466 05/19/10
Higgings v. Brusco Tug And Barge, Inc. et al 2:2008cv02300 05/19/10
In Re Richard J. Shields 2:2009cv02910 05/19/10
In Re: Food Services Management Inc 2:2010cv01032 05/19/10
In Re: Raj Singh 2:2010mc00056 05/19/10
James v. Mehta 2:2010cv01171 05/19/10
Jewett v. City of Sacramento Fire Dept., et al., 2:2010cv00556 05/19/10
Johnson v. Dovey et al 1:2008cv00640 05/19/10
Johnson v. Moore et al 2:2010cv00309 05/19/10
Johnson v. Secret River Inc., et al 2:2010cv00792 05/19/10
Kaur v. Fidelity National Title Ins Co. et al 2:2010cv00456 05/19/10
Kim-C1, LLC v. Valent Biosciences Corporation, Inc. 1:2010cv00591 05/19/10
Kophamer Farms, Inc. v. Select Onion, LLC et al 1:2010cv00162 05/19/10
Leubner v. County of San Joaquin et al 2:2008cv00853 05/19/10
McBrien v. On Habeas Corpus 1:2010cv00742 05/19/10
McGlothin v. Harrington et al 1:2010cv00247 05/19/10
McNish et al v. Actavis Totowa LLC et al 1:2010cv00604 05/19/10
Morris v. Clay 2:2008cv01790 05/19/10
Nagel v. ADI Shuttle Group, LLC 2:2009cv02620 05/19/10
Newman et al v. San Joaquin Delta Community College District et al 2:2009cv03441 05/19/10
Northern California River Watch v. U.S. Department of the Interior et al 2:2009cv02510 05/19/10
Paredez v. Yates 1:2010cv00815 05/19/10
Peterson v. Gore et al 2:2009cv03267 05/19/10
Petillo v. Walker et al 2:2009cv03349 05/19/10
Petillo v. Walker et al 2:2009cv03349 05/19/10
Public Lands for the People, Inc. et al v. United States Department of Agriculture 2:2009cv01750 05/19/10
Rodgers v. Swarthout, et al 2:2010cv00581 05/19/10
Rogers v. Rogers Jewelery 2:2010cv00308 05/19/10
Rogers v. State Farm Insurance Company, et al 2:2009cv00419 05/19/10
Rosenblum v. Mule Creek State Prison Medical Staff et al 1:2008cv00448 05/19/10
Salu, Inc. v. Original Skin Store LLC 2:2008cv01035 05/19/10
Sanchez v. Kaiser et al 1:2009cv02248 05/19/10
Santos v. United Nations et al 2:2010cv00220 05/19/10
Scott v. Scribner 1:2010cv00810 05/19/10
Scott v. Scribner 2:2010cv01220 05/19/10
Smith v. Roelke 2:2009cv02766 05/19/10
Solomon v. Felker et al 2:2008cv02544 05/19/10
Soto v. Martel et al 2:2010cv00670 05/19/10
Spencer v. Clark 1:2009cv01911 05/19/10
Stoltie v. Geringson et al 2:2008cv02584 05/19/10
Stuckey v. Rios 1:2010cv00838 05/19/10
Thompson v. Scribner 2:2010cv01214 05/19/10
Thompson v. Scribner 1:2010cv00854 05/19/10
U.S. Equal Employment Opportunity Commission v. Kobra Associates, Inc. d/b/a Jack in the Box 2:2009cv03546 05/19/10
U.S. Equal Employment Opportunity Commission v. Kobra Associates, Inc. d/b/a Jack in the Box 2:2009cv03546 05/19/10
United States of America et al v. Lopez 1:2008cv00752 05/19/10
United States of America v. Approximately $2,147.00 in U.S. Currency et al 2:2010mc00044 05/19/10
United States of America v. Real Property located at 12711 Highway 89, Sierraville, California, Sierra County 2:2010cv01116 05/19/10
Uribe v. McKesson et al 1:2008cv01285 05/19/10
Williams et al v. Troehler 1:2008cv01523 05/19/10
Williams v. Allstate Insurance Company 2:2009cv01023 05/19/10
Williams v. Book et al 2:2010cv00423 05/19/10
Williams v. Martel, et al., 2:2008cv01024 05/19/10
Wilson v. Allied-Barton Security Services 2:2010cv01156 05/19/10
Wirsz v. Sugrue 1:2009cv01204 05/19/10
Yang v. Derosa 2:2009cv02578 05/19/10
Alfaro v. Scott 2:2010cv00892 05/17/10
Anderson et al v. Select Comfort Retail Corporation 2:2010cv00128 05/17/10
Aspelin v. Pacific Properties-I 2:2009cv02771 05/17/10
B-Air, L.C. v. Aircraft Mechanical Services, Inc. 1:2009cv00776 05/17/10
Baer v. Commissioner of Social Security 2:2009cv03083 05/17/10
Barnett v. Cate et al 1:2010cv00842 05/17/10
Butler v. Wolcott et al 2:2008cv00857 05/17/10
Castaneda et al v. Saxon Mortgage Services, Inc. et al 2:2009cv01124 05/17/10
Centeno v. John Doe, et al 1:2008cv01435 05/17/10
Chatman v. Tyner, et al 1:2003cv06636 05/17/10
Christensen v. Verducci 1:2009cv01440 05/17/10
Cook v. Sisto 2:2007cv00387 05/17/10
Dixon v. O'Connor, et al 2:2008cv01546 05/17/10
Dynes v. Fresno Detention Center Medical Staff Department 1:2010cv00653 05/17/10
Evans v. Bantek West, Inc et al 2:2008cv02719 05/17/10
Fagan v. Fresno County Jail, et al. 1:2008cv01674 05/17/10
Fisher v. Felker, et al 2:2007cv02271 05/17/10
Fleming v. Cate 1:2009cv01765 05/17/10
Garcia v. Klepfield 1:2010cv00846 05/17/10
Gil v. Yates et al 1:2009cv00917 05/17/10
Gomes v. American Century Companies, Inc. 2:2009cv02153 05/17/10
Gong-Chun v. Aetna Life Insurance Company et al 1:2009cv01995 05/17/10
Hampton v. CSS 1:2010cv00884 05/17/10
Heavenly Valley Limited Partnership v. Lake Tahoe Development Company, LLC 2:2009cv01533 05/17/10
Hernandez v. Pfizer, Inc. et al. 1:2010cv00279 05/17/10
Herrera v. Statti 2:2010cv01154 05/17/10
Hudson v. Brian et al 1:2008cv00249 05/17/10
Hudson v. Yates 1:2010cv00125 05/17/10
Ireland v. Marsh 2:2008cv02628 05/17/10
Ireland v. Marsh 2:2008cv02628 05/17/10
Ireland v. Marsh 2:2008cv02628 05/17/10
J & J Sports Productions, Inc. v. Hernandez 2:2009cv03389 05/17/10
Jimenez v. Commissioner of Social Security 1:2009cv01371 05/17/10
Johnson v. Departments Of The Army And Air Force et al 1:2009cv00281 05/17/10
Johnson v. Schwarzenegger et al 2:2010cv01034 05/17/10
Jones v. Barron et al 2:2010cv00396 05/17/10
Jones v. Swarthout, et al 2:2010cv00644 05/17/10
Keenan v. Commissioner of Social Security 2:2008cv02063 05/17/10
Kersey v. Commissioner of Social Security 2:2009cv00975 05/17/10
Lowrie et al v. Alliance Bancorp et al 2:2010cv00468 05/17/10
Maxwell v. MortgageIT, Inc. 1:2008cv01329 05/17/10
McCoy v. Spidle et al 1:2007cv00198 05/17/10
McLaughlin v. Felker et al 2:2008cv00831 05/17/10
McLaughlin v. Felker et al 2:2008cv00831 05/17/10
Mistriel v. Kern County, et al 1:2003cv06922 05/17/10
Morgan v. Napolitano 2:2009cv02649 05/17/10
North American Specialty Insurance Company v. Campbell et al 2:2009cv02061 05/17/10
OneWest Bank, FSB v. Austinn 2:2010cv01179 05/17/10
Paul L. Ceballos v. Commissioner of Social Security 1:2010cv00864 05/17/10
Prater v. Kramer et al 2:2006cv01993 05/17/10
Richards v. The People et al 1:2007cv01805 05/17/10
Riel v. Woodford 2:2001cv00507 05/17/10
Riel v. Woodford 2:2001cv00507 05/17/10
Rogers v. Scribner 1:2005cv00569 05/17/10
Sevilla v. Adams, et al. 1:2006cv00172 05/17/10
Sherri Hubble v. The Lincoln National Life Insurance Company, et al 1:2010cv00603 05/17/10
Shill v. United Parcel Service, Inc. 2:2008cv02918 05/17/10
Singh v. Martel 2:2009cv01453 05/17/10
Tholmer v. Yates et al 1:2006cv01403 05/17/10
Travelers Casualty and Surety Co. v. Natoma Valley Ridge, et al., 2:2008cv02715 05/17/10
Trush v. National Credit Works, Inc. 2:2009cv03519 05/17/10
Vega et al v. Weeks Wholesale Rose Grower, Inc. 1:2007cv00225 05/17/10
Washington v. Early 1:2003cv05263 05/17/10
Alvarado et al v. Nederend et al 1:2008cv01099 05/13/10
Azevedo v. City of Fresno et al 1:2009cv00375 05/13/10
Baltz v. Baltimore Aircoil Company, Inc. 1:2010cv00058 05/13/10
Best Buy Stores, L.P. v. Manteca Lifestyle Center, LLC 2:2010cv00389 05/13/10
Blanco vs. American Home Mortgage Servining, Inc., et al 2:2009cv00578 05/13/10
Board of Trustees v. Nunez et al 2:2008cv02688 05/13/10
Brown v. Internal Affairs 2:2010cv01148 05/13/10
Coleman v. Vallejo Police Department et al 2:2008cv02959 05/13/10
Cosco v. Gemmit 2:2008cv00887 05/13/10
County of Sacramento v. Calabrian Corporation 2:2009cv00344 05/13/10
Dalrick A. Henry v. Eliud Chapa 1:2007cv00336 05/13/10
Dalrick A. Henry v. Eliud Chapa 1:2007cv00336 05/13/10
Dalrick A. Henry v. Eliud Chapa 1:2007cv00336 05/13/10
Davis v. Haviland 2:2010cv01029 05/13/10
Diaz-Martinez v. Commissioner of Social Security 2:2009cv02096 05/13/10
Dudley v. Hartford Casualty Insurance Company 2:2010cv01075 05/13/10
Dupree v. Commissioner of Social Security 2:2009cv01487 05/13/10
Eddie Holtzclaw v. Certainteed Corporation 1:2009cv01599 05/13/10
Ernest L. Hales v. Cate et al 1:2010cv00097 05/13/10
Fayad v. Alcantar et al. 1:2010cv00070 05/13/10
Freeland v. Sacramento City et al 2:2006cv00187 05/13/10
Gallegos v. Cates et al 2:2009cv01757 05/13/10
Garcia v. Fresno Municipal Courthouse 1:2010cv00736 05/13/10
Garcia v. Klepfield 1:2010cv00737 05/13/10
Graham v. Runnels, et al 2:2007cv02291 05/13/10
Graham v. Shasta County Sheriff's Dept. et al 2:2009cv03025 05/13/10
Graham v. Shasta County Sheriff's Dept. et al 2:2009cv03025 05/13/10
Hall v. Placer County Sheriff Department et al 2:2010cv01152 05/13/10
Hawecker et al v. Sorensen 1:2010cv00085 05/13/10
Hayee v. Commissioner of Social Security 2:2009cv02285 05/13/10
Holt v. Stockman, et al 1:2004cv06073 05/13/10
Kirk v. Felker et al 2:2007cv02521 05/13/10
Lai v. Ipson et al 1:2009cv02086 05/13/10
Lane, et al vs. Vitek Real Estate Industries Group 2:2010cv00335 05/13/10
Lee v. Custom Builders, a California Corporation et al 2:2008cv01909 05/13/10
Leubner v. County of San Joaquin et al 2:2008cv00853 05/13/10
Lewis v. California Department of Corrections 2:2009cv03059 05/13/10
Lewis v. California Department of Corrections 2:2009cv03059 05/13/10
Lopez v. Davey, et al 2:2009cv03089 05/13/10
Martin v. Sullivan et al 1:2006cv00972 05/13/10
Matson v. Allison 2:2010cv01047 05/13/10
McIntosh v. Nothern California Universal Enterprises Company et al 1:2007cv01080 05/13/10
McMurray v. County of Sacramento et al 2:2009cv02245 05/13/10
Miller v. Roche 2:2009cv00917 05/13/10
Montano v. Medical Department Solano State Prison et al 2:2007cv00800 05/13/10
Newark Group, Inc. v. Dopaco, Inc. 2:2008cv02623 05/13/10
Newman et al v. San Joaquin Delta Community College District et al 2:2009cv03441 05/13/10
Norden v. California Department of Corrections and Rehabilitation et al 1:2010cv00361 05/13/10
Orecchia v. Commissioner of Social Security 1:2009cv01620 05/13/10
Owbridge v. Douglas et al 2:2009cv02833 05/13/10
Pantalion v. Resmae Mortgage Corporation et al 2:2009cv02262 05/13/10
Parks v. Tait et al 1:2008cv01031 05/13/10
Plager v. Gordon Trucking Inc. et al 2:2009cv03402 05/13/10
ProtectMarriage.com - Yes on 8, a Project of California Renewal et al v. Bowen et al 2:2009cv00058 05/13/10
Provencio, et al. v. Vasquez, et al. 1:2007cv00069 05/13/10
Puckett v. Steadman et al 1:2009cv02147 05/13/10
Reece v. Sisto et al 2:2010cv00203 05/13/10
Rhoden v. Mayberg et al 1:2009cv01890 05/13/10
Saesee v. People of the State of California 1:2010cv00814 05/13/10
Salcido v. Madera County et al 1:2010cv00195 05/13/10
Sanchez v. McDonald 1:2010cv00809 05/13/10
Schmitz v. Allied Interstate Inc. 2:2009cv01921 05/13/10
Stockton v. Billings 1:2010cv00586 05/13/10
Stringham v. Bick et al 2:2009cv00286 05/13/10
Taylor v. Prieto et al 2:2010cv00453 05/13/10
Thomas v. Garcia et al 1:2008cv00689 05/13/10
Thompson v. Yates 1:2009cv00727 05/13/10
Tumbling v. Merced Irrigation District 1:2008cv01801 05/13/10
United States of America et al v. Shadley 2:2009mc00080 05/13/10
UNUM Life Insurance Company of America v. Painter et al 2:2009cv00732 05/13/10
Valley v. Woodford et al 2:2005cv00310 05/13/10
Valley v. Woodford et al 2:2005cv00310 05/13/10
Valley v. Woodford et al 2:2005cv00310 05/13/10
Verduzco et al v. Indymac Bank Home Loan Servicing et al 2:2009cv02371 05/13/10
White v. Knight et al 1:2009cv00084 05/13/10
Williams v. Rodriguez et al 1:2009cv01882 05/13/10
Winding v. Allstate 2:2009cv03526 05/13/10
Woods v. Greenpoint Mortgage Funding, Inc. et al 2:2009cv01810 05/13/10
Young Yil Jo v. Obama 1:2010cv00804 05/13/10
Anderson v. Sacramento County Human Services 2:2010cv00967 05/12/10
Andre-Gollihar v. County of San Joaquin, et al 2:2009cv03313 05/12/10
ARC Students for Liberty Campaign v. Los Rios Community College District 2:2009cv02446 05/12/10
Aspex Eyewear, Inc. v. Vision Service Plan et al 2:2010cv00632 05/12/10
Atwood v. Shore Communications, Inc. 2:2009cv02224 05/12/10
Baker v. Solano County Jail 2:2010cv00985 05/12/10
Bell v. Commissioner of Social Security 2:2010cv01137 05/12/10
Blackman v. Harrington et al 1:2010cv00380 05/12/10
Blackman v. Third Appellate Court Judge Coleman A. Blease et al 1:2007cv01873 05/12/10
Blaine v. Ducan, et al 2:2010cv00103 05/12/10
Bravo v. The United States Life Insurance Company in the City of New York 2:2008cv01982 05/12/10
Burt v. Swingle, et al 2:2010cv00942 05/12/10
Bush v. Commissioner of Social Security 1:2009cv01551 05/12/10
Carter v. GMAC Mortgage, LLC, et al 2:2010cv00639 05/12/10
Chairez v. Dexter 2:2009cv00786 05/12/10
Chattman v. Carey 2:2007cv01298 05/12/10
Chess v. Sisto et al 2:2006cv01639 05/12/10
Coleman, et al v. Schwarzenegger, et al 2:1990cv00520 05/12/10
Conservation Congress et al v. United States Forest Service 2:2007cv02764 05/12/10
Cordar v. Haviland 2:2010cv01109 05/12/10
Corley v. Dickinson 1:2009cv01607 05/12/10
Correa v. Superior Court of the State of California, County of Sacramento 2:2009cv02353 05/12/10
Cortemanche v. Martel 2:2009cv03577 05/12/10
Cox v. Yates 2:2008cv02107 05/12/10
Dynes v. Medina, et al 1:2008cv00136 05/12/10
El-Min v. Ives 2:2010cv01038 05/12/10
Ellis v. Cambra, et al 1:2002cv05646 05/12/10
Engel v. Loustaunau 2:2009cv03177 05/12/10
ERA Franchise Systems, Inc. v. Gold Nugget Realtors, Inc. et al 2:2007cv00982 05/12/10
Estate of Matthew McEvers et al v. County of Sacramento et al 2:2006cv02161 05/12/10
Estate of Matthew McEvers et al v. County of Sacramento et al 2:2006cv02161 05/12/10
Evans v. Sisto et al 2:2009cv00292 05/12/10
Fratus v. Adams 1:2010cv00740 05/12/10
Gann v. Schwarzenneger et al 1:2009cv01616 05/12/10
Garcia v. City of Sanger et al 1:2009cv00359 05/12/10
Gardner v. McDonal 2:2010cv00142 05/12/10
Garland Shaun Darnell v. Hedgpeth et al 1:2008cv00635 05/12/10
Garrison v. Tilton et al 2:2010cv01080 05/12/10
Gonsalves v. Commissioner of Social Security 1:2009cv01526 05/12/10
Harper v. Commissioner of Social Security 1:2009cv01211 05/12/10
Helmer v. Countrywide Home Loans 2:2009cv02977 05/12/10
Hernandez v. Homeq Servicing 1:2010cv00528 05/12/10
Hollis v. McGuire, et al 2:2009cv01065 05/12/10
Howard v. Nunley, et al. 1:2006cv00191 05/12/10
Imada v. OneWest Bank, FSB et al 2:2010cv00157 05/12/10
IN RE: Morrow 1:2009cv01321 05/12/10
In Re: SS Farms, LLC et al 2:2009cv02941 05/12/10
In Re: SS Farms, LLC et al 2:2009cv02939 05/12/10
In Re: SS Farms, LLC et al 2:2009cv02937 05/12/10
In Re: SS Farms, LLC et al 2:2009cv02938 05/12/10
In Re: SS Farms, LLC et al 2:2009cv02938 05/12/10
In Re: SS Farms, LLC et al 2:2009cv02940 05/12/10
Jackson v. Haviland, et al 2:2009cv00989 05/12/10
Jayne v. Sprint PCS et al 2:2007cv02522 05/12/10
Johnson v. Carmassi Family Limited Partnership 2:2009cv03285 05/12/10
Johnson v. Newman et al 2:2010cv00212 05/12/10
Johnson v. Pacific Pizza, Inc. et al 2:2010cv00210 05/12/10
Johnson v. Secret River Inc., et al 2:2010cv00792 05/12/10
Johnson v. Secret River Inc., et al 2:2010cv00792 05/12/10
Johnson v. Welch et al 2:2010cv00246 05/12/10
Kamau v. Credit Solution Corp 2:2010cv00271 05/12/10
Kane v. Finn et al 2:2007cv01120 05/12/10
Kemper v. Folsom Cordova Unified School District et al 2:2009cv03222 05/12/10
Knox v. Martel et al 2:2008cv00494 05/12/10
Kopchuk v. Countrywide Financial Corporation et al 2:2009cv02681 05/12/10
Lautiej v. Kmart 2:2009cv03315 05/12/10
Lebus v. Astrue 1:2009cv00448 05/12/10
Lewis, et al v. TCIF REO GCM California, LLC et al 1:2010cv00063 05/12/10
Lopez v. Hubbard, et al 2:2009cv01928 05/12/10
Lopez v. Wachovia Mortgage, et al 2:2009cv02340 05/12/10
Lucas v. Scribner et al 1:2008cv00521 05/12/10
Ludavico v. Sacramento County et al 2:2008cv01473 05/12/10
Martinez v. Whitman et al 1:2006cv01074 05/12/10
Maxwell v. MortgageIT, Inc. 1:2008cv01329 05/12/10
Miller v. Commissioner of Social Security 1:2009cv01257 05/12/10
Monroe v. Zimmer US, Inc. et al 2:2008cv02944 05/12/10
Nasrawi et al v. Buck Consultants, LLC et al 1:2009cv02061 05/12/10
Neal v. Penner et al 1:2010cv00798 05/12/10
Noor v. Martell 2:2008cv01656 05/12/10
O'Campo v. Walgreen Co. et al 2:2010cv00156 05/12/10
Ortega v Walker et al 2:2010cv00998 05/12/10
Ortega v Walker et al 2:2010cv00998 05/12/10
Osei v. Countrywide Home Loans et al 2:2009cv01981 05/12/10
Philpott v. Williams 2:2009cv01773 05/12/10
Pica v. Wachovia Mortgage et al 2:2009cv02372 05/12/10
Porter-Bey v. Cuifo 2:2010cv01089 05/12/10
Porter-Bey v. Cuifo 1:2010cv00834 05/12/10
Redding Bank of Commerce v. Johannessen et al 2:2010cv00385 05/12/10
Rhead v. Ryder Integrated Logistics, Inc. 2:2009cv00705 05/12/10
Rith v. Clark 1:2010cv00797 05/12/10
Roe, et al v. United States of America, et al 2:2009cv01958 05/12/10
Securities and Exchange Commission v. Secure Investement Services, Inc., et al 2:2007cv01724 05/12/10
Securities and Exchange Commission v. Secure Investement Services, Inc., et al 2:2007cv01724 05/12/10
Senteno v. State of California et al 1:2008cv00694 05/12/10
Shepard v. Cohen et al 1:2009cv01628 05/12/10
Shill v. United Parcel Service, Inc. 2:2008cv02918 05/12/10
Sierra v. Terhune 1:2001cv05131 05/12/10
Slama v. City of Madera, et al 1:2008cv00810 05/12/10
Smith v. Green 1:2009cv00600 05/12/10
Stamas, et al vs. County of Madera, et al. 1:2009cv00753 05/12/10
Stamas, et al vs. County of Madera, et al. 1:2009cv00753 05/12/10
Stephenson v. Martel et al 2:2010cv00238 05/12/10
Suggs v. Marshall et al 2:2010cv00799 05/12/10
Suniga v. McDonald 1:2010cv00090 05/12/10
Talamantes v. Grounds 2:2009cv03547 05/12/10
Thiel v. GMAC Mortgage, LLC 2:2010cv00645 05/12/10
Truong, et al v. Sacramento County Sheriff's Department, et al 2:2010cv00506 05/12/10
Ulrey v West et al 2:2006cv01335 05/12/10
United States of America v. Approximately $79,784.78 in Money Orders et al 2:2007cv00816 05/12/10
USA v. El Dorado County, et al 2:2001cv01520 05/12/10
USA v. El Dorado County, et al 2:2001cv01520 05/12/10
Van Horn vs. Hornbeak, et al. 1:2008cv01622 05/12/10
Van Noland et al v. Pelletier et al 2:2009cv02035 05/12/10
W. v. Buckeye Union School District 2:2009cv02772 05/12/10
Wade v. Commissioner of Social Security 2:2010cv01153 05/12/10
Washington v. Andrews et al 1:2007cv00886 05/12/10
Washington v. Andrews et al 1:2007cv00886 05/12/10
Wilson-Millan v. Federal Bureau of Prisons 2:2010cv00687 05/12/10
Wilson-Millan v. Federal Bureau of Prisons 1:2010cv00833 05/12/10
Young v. Commissioner of Social Security 1:2010cv00826 05/12/10
Alfaro v. Marin 2:2009cv03595 05/11/10
Andreas v. Yates et al 1:2008cv01410 05/11/10
Austin Willis v. James Yates et al 1:2008cv00125 05/11/10
Avina v. Adams 1:2010cv00790 05/11/10
Boland, Inc. v. Rolf C. Hagen (USA) Corp. 2:2008cv02201 05/11/10
Bowles v. Commissioner of Social Security 1:2009cv00926 05/11/10
Burnett v. St. Clair et al 2:2010cv01088 05/11/10
Burnett v. St. Clair et al 1:2010cv00822 05/11/10
California Dairies, Inc. vs. RSUI Indemnity Co. 1:2008cv00790 05/11/10
California Sportfishing Protection Alliance v Castle & King, Inc. 2:2009cv00819 05/11/10
Carpenter v. Sullivan, et al. 1:2007cv00114 05/11/10
Cash v. Swingle et al 2:2010cv01082 05/11/10
Champagne v. Ahlin 1:2009cv00101 05/11/10
Chapman v. Mistler, et al 2:2008cv00742 05/11/10
Chapman v. Small 2:2009cv00639 05/11/10
City of Fresno v. Boeing Company, et al. 1:2006cv01559 05/11/10
Clark v. Rios, Jr. 1:2009cv00817 05/11/10
Combs Co., Inc. v. Genfoot Inc., et al 2:2010cv00585 05/11/10
Cosco v. Gemmit 2:2008cv00887 05/11/10
Covarrubias v. People of The State of California 1:2009cv00518 05/11/10
Coxey v. Commissioner of Social Security 2:2009cv02530 05/11/10
Debbad v. JPMorgan Chase Bank, et al., 2:2009cv01998 05/11/10
Delgado v. J.P Sethi et al 1:2010cv00225 05/11/10
DiPinto v. U.S. Bank National Association, as Trustee et al 2:2009cv03225 05/11/10
Duarte v. CSS 1:2009cv01767 05/11/10
Dynes v. Fresno Detention Center Medical Staff Department 1:2010cv00653 05/11/10
E. & J. Gallo Winery v. Proximo Spirits, Inc. et al 1:2010cv00411 05/11/10
EEOC v. ABM Janitorial Services, Inc. 1:2007cv01428 05/11/10
Evans v. Yates 1:2009cv01857 05/11/10
Falls v. Yates 1:2008cv01729 05/11/10
Faustino et al v. Countrywide Bank, N.A. et al 2:2010cv00399 05/11/10
Flores v. Commissioner of Social Security 1:2009cv01294 05/11/10
Foster v. Bear Stearns Residential Mortgage Corporation, et al. 2:2008cv01691 05/11/10
Friends of Amador County, et al., v. Salazar 2:2010cv00348 05/11/10
Garcia v. California Department of Corrections et al 1:2009cv01648 05/11/10
Garcia v. Rite-Aide 1:2010cv00498 05/11/10
Gonzalez v. Hartlsy et al 1:2010cv00084 05/11/10
Goodwin et al v. Securitas Security Services USA, Inc. 2:2009cv02685 05/11/10
Gutierrez v. Commissioner of Social Security 1:2009cv00146 05/11/10
Herrera v. Statti 2:2010cv01154 05/11/10
Herrera v. Statti 1:2010cv00795 05/11/10
Hovater, et al., v. Winco Foods, LLC et al 2:2010cv00621 05/11/10
Howard v. Commissioner of Social Security 1:2010cv00821 05/11/10
Hubbard v. People of the State of California 2:2009cv01844 05/11/10
Hubbard v. Yates et al 1:2009cv01016 05/11/10
In Matter of Hyatt Corporation, et al 2:2009cv01220 05/11/10
Ingram v. Sacramento City Police Department et al 2:2008cv02547 05/11/10
J & J Sports Productions, Inc. v. Ferreyra et al 2:2009cv01227 05/11/10
Jackson v. California Department of Corrections and Rehabilitation et al 2:2006cv02023 05/11/10
Jackson v. Horel et al 2:2006cv02646 05/11/10
James R. Tapp v. Thor Industries, Inc., et al 1:2008cv01907 05/11/10
Jennings v. Moreland et al 2:2008cv01305 05/11/10
Joe Hand Promotions, Inc. v. Brown et al 2:2010cv00224 05/11/10
Johnson v. Walker 2:2009cv00064 05/11/10
Jones v. Felker et al 2:2009cv03092 05/11/10
Joyce E. Walters v. Commisioner of Social Security 1:2009cv00077 05/11/10
Kelley v. Allen, et al 2:2010cv00557 05/11/10
Lea v. NCB Management Services, Inc. 1:2010cv00598 05/11/10
Leyro v. City of Chowchilla et al 1:2008cv01675 05/11/10
Marcos v. Commissioner of Social Security 1:2009cv01622 05/11/10
Martinez v. Donaldson et al 2:2009cv03046 05/11/10
Marx v. Federal Bureau of Prisons et al 1:2009cv00079 05/11/10
Maxwell v. MortgageIT, Inc. 1:2008cv01329 05/11/10
Mayhugh v. Commisioner of Social Security 2:2009cv01699 05/11/10
McCoy v. Horrel 2:2008cv00793 05/11/10
McEachern v. Haviland 2:2010cv01074 05/11/10
McGee v. Attorney General State of California 2:2010cv00137 05/11/10
Meador v. Alvidrez et al 1:2009cv01058 05/11/10
Melgoza v. Commissioner of Social Security 1:2010cv00812 05/11/10
Monroe v. Zimmer US, Inc. et al 2:2008cv02944 05/11/10
Morgan, et al v. Zattiero, et al 2:1994cv02091 05/11/10
National Petrochemical & Refiners Association et al v. Goldstene et al 1:2010cv00163 05/11/10
Nehara v. State of California et al 1:2010cv00491 05/11/10
Nguon v Dickinson 2:2009cv02975 05/11/10
Paramount Farms, Inc. vs. Ventilex B.V. 1:2008cv01027 05/11/10
Pardamandeep Kaur Boyal v. Napolitano et al 2:2009cv03263 05/11/10
Passport Health, Inc. v. Travel Med Inc. et al 2:2009cv01753 05/11/10
Phillips v. IMS Loans, Inc. 2:2009cv03112 05/11/10
Pobursky, et al. v. Madera County, et al. 1:2007cv00611 05/11/10
Porotesano Faapouli v. County of Fresno 1:2009cv00907 05/11/10
Randall v. McDonald et al 2:2009cv02765 05/11/10
Rangel v. Nabil, et al 2:2002cv01633 05/11/10
Rein v. The Standard Insurance Company et al 2:2009cv02348 05/11/10
Robinson v. Adams, et al. 1:2008cv01380 05/11/10
Robinson v. Adams, et al. 1:2008cv01380 05/11/10
Rocky Mountain Farmers Union et al v. Goldstene 1:2009cv02234 05/11/10
Ruchell Cinque Magee v. Grannis et al 1:2009cv01076 05/11/10
Samuelson v. Tristan 2:2010cv00383 05/11/10
Shadden, Jr. v. Adams 1:2010cv00298 05/11/10
Sherry Logan v. Commissioner of Social Security 1:2010cv00820 05/11/10
Singh, et al. v. Wendy's International, Inc., et al. 2:2009cv00664 05/11/10
Solis v. Medonld 2:2010cv00637 05/11/10
Springer v. R&L Carriers, Inc. 2:2010cv00907 05/11/10
Stevens v. Deere & Company 2:2008cv01903 05/11/10
Stolyarchuk v. AmTrust Bank, et al 2:2009cv03070 05/11/10
Stone vs. Cate, et al., 2:2009cv02139 05/11/10
Swanson v. Neibauer et al 1:2009cv01377 05/11/10
Tair Ten Funches v. Commissioner of Social Security 1:2010cv00819 05/11/10
Tair Ten Funches v. Commissioner of Social Security 1:2010cv00819 05/11/10
Taylor v. Department of the Air Force et al 2:2008cv00869 05/11/10
Thao v. Swarthouth 2:2009cv03572 05/11/10
Thomas v. The Superior Court of Madera County 1:2010cv00200 05/11/10
Tracy Yu-Santos v. Ford Motor Company et al 1:2006cv01773 05/11/10
Turner v. Sacramento County Jail 2:2009cv00117 05/11/10
United States of America v. Real Property located at 1 Mile Up Hennessey Road, Burnt Ranch, California, APN: 008-430-02 2:2009cv01940 05/11/10
United States of America v. Real Property located at 12711 Highway 89, Sierraville, California, Sierra County 2:2010cv01116 05/11/10
USA et al v. Migliori 2:2010mc00021 05/11/10
Valdez v. Paul Law Offices 1:2009cv01353 05/11/10
Vanduzen v. Homecomings Financial et al 2:2009cv01237 05/11/10
Villanueva v. American General Financial Services, Inc., et al 1:2010cv00138 05/11/10
Wiles v. Portfolio Recovery Associates, Inc. 2:2010cv00273 05/11/10
Williams v. Sabin et al 2:2010cv00656 05/11/10
Woods v. Greenpoint Mortgage Funding, Inc. et al 2:2009cv01810 05/11/10
Wright v. Anguzza 2:2009cv01513 05/11/10
Wyatt v. Martel 2:2009cv00353 05/11/10
Zadran v. JP Morgan Chase Bank 2:2009cv02708 05/11/10
Alexander v. Hedgpeth 2:2007cv00722 05/10/10
Allen v. Shepard 2:2006cv01923 05/10/10
Altmann v. Indymac Federal Bank, et al 2:2009cv02361 05/10/10
Angevine v. Commissioner of Social Security 1:2009cv01496 05/10/10
ARC Students for Liberty Campaign v. Los Rios Community College District 2:2009cv02446 05/10/10
Bell v. Hedgpeth 1:2010cv00695 05/10/10
Bjorlin v. Hubbard et al 2:2009cv01793 05/10/10
Bjorlin v. Hubbard et al 2:2009cv01793 05/10/10
Blankenship v. Alaska Airlines, Inc. 2:2009cv01377 05/10/10
Brooks v. Alameida, et al 2:2003cv02343 05/10/10
Brownlee v. Armoskus et al 2:2007cv02040 05/10/10
Chavez v. Commissioner of Social Security 1:2009cv01579 05/10/10
City of Fresno v. Boeing Company, et al. 1:2006cv01559 05/10/10
Clark v. Sisto 2:2009cv03057 05/10/10
Clarke v. City of Madera 1:2009cv01301 05/10/10
Coalition for a Sustainable Delta et al v. United States Fish and Wildlife Service et al 1:2009cv02024 05/10/10
Cohn v. Bank of America 2:2010cv00865 05/10/10
Craig v. Flanery 2:2008cv00248 05/10/10
CytoSport, Inc. v. Vital Pharmaceuticals, Inc. 2:2008cv02632 05/10/10
Dacumos v. World Savings 2:2010cv00854 05/10/10
Del Don Jr. v. United States Department of Agriculture et al 1:2010cv00126 05/10/10
Dunaway v. Clark et al 1:2009cv00520 05/10/10
Dyess v. Tehachapi Unified School District, et al. 1:2010cv00166 05/10/10
Dynes v. Medina, et al 1:2008cv00136 05/10/10
Ernst v. Wyeth, Inc. et al 2:2010cv00435 05/10/10
Garcia v. Citibank, N.A. et al 2:2009cv03387 05/10/10
Gayles v. Sisto 2:2008cv02774 05/10/10
Glass v. Beer, et al 1:2004cv05466 05/10/10
Grafil, Inc. v. General Plastics Corporation 2:2010cv00904 05/10/10
Harrison v. CDCR, et al., 2:2010cv00547 05/10/10
Hawkins v. USA 1:2004cv05771 05/10/10
Heart Zones Education, LLC et al v. Heart Zones USA et al 2:2010cv00432 05/10/10
Herrera v. Giampietro et al 1:2009cv01466 05/10/10
Higgins v. State of California 2:2006cv02192 05/10/10
Hollis v. Mason et al 2:2008cv01094 05/10/10
House v. Cal State Mortgage Company Inc et al 1:2008cv01880 05/10/10
Johnson v. Felker et al 2:2007cv00357 05/10/10
Johnson v. Yates 2:2010cv00966 05/10/10
Kumar v. Yates 2:2009cv02455 05/10/10
Lopez v. Wachovia Mortgage, et al 2:2009cv02340 05/10/10
Lucas v. Scribner et al 1:2008cv00521 05/10/10
Manago v. Walker 2:2008cv02857 05/10/10
Martin v. Hubbard, et al 2:1999cv00223 05/10/10
Martin v. U.S. Bank National Association, Successor in Interest to the Federal Deposit Insurance Corporation as Receiver for Downey Savings and Loan Association, F.A. et al 1:2010cv00634 05/10/10
Mason v MortgageIT, Inc. et al 2:2010cv00986 05/10/10
McElroy v. Haviland et al 2:2009cv02259 05/10/10
McIntosh v. Nothern California Universal Enterprises Company et al 1:2007cv01080 05/10/10
McKinney v. Tehama County et al 2:2010cv01139 05/10/10
McKinney v. Tehama County et al 1:2010cv00768 05/10/10
Miller v. Rufion, et al 1:2008cv01233 05/10/10
National Petrochemical & Refiners Association et al v. Goldstene et al 1:2010cv00163 05/10/10
National Petrochemical & Refiners Association et al v. Goldstene et al 1:2010cv00163 05/10/10
Nelson v. Costello, et al 1:2007cv00802 05/10/10
Parmer v. CDC et al 2:2009cv03310 05/10/10
Parmer v. CDC et al 2:2009cv03310 05/10/10
Reid v. Haviland 2:2009cv03400 05/10/10
Richards-White v. Lemendola 2:2010cv00292 05/10/10
Roberts v. Salano et al 1:2008cv00162 05/10/10
Rocky Mountain Farmers Union et al v. Goldstene 1:2009cv02234 05/10/10
Russell v. Hartley 1:2009cv02115 05/10/10
San Luis & Delta-Mendota Water Authority et al v. Locke et al 1:2009cv01053 05/10/10
San Luis & Delta-Mendota Water Authority et al v. Salazar et al 1:2009cv00407 05/10/10
Singh v. Martel 2:2009cv01453 05/10/10
Stanislaus Food Products Company v. USS-POSCO Industries 1:2009cv00560 05/10/10
Thomas v. Commissioner of Social Security 1:2009cv01716 05/10/10
Townsend v. State of California et al 1:2010cv00470 05/10/10
United States of America v. Bragdon et al 1:2010cv00377 05/10/10
Verrier v. Wyeth, Inc. et al 2:2010cv00436 05/10/10
Victory v. Schwarzenegger et al 1:2005cv01578 05/10/10
Von Koenig v. Snapple Beverage Corporation 2:2009cv00606 05/10/10
Walker v. Pfizer, Inc. et al 2:2010cv00463 05/10/10
Williams v. Sisto et al 2:2008cv02069 05/10/10
Wilson v. Evans 2:2008cv02631 05/10/10
Wilson v. Tilton et al 2:2007cv01192 05/10/10
Zadran v. JP Morgan Chase Bank 2:2009cv02708 05/10/10
Anderson v. Sacramento County Human Services 2:2010cv00967 05/07/10
Banks v. Shepherd et al 2:2005cv00797 05/07/10
Beard v. Romero 2:2009cv02442 05/07/10
Birk v. Gateway Funding Corporation et al 2:2010cv01039 05/07/10
Birk v. Gateway Funding Corporation et al 2:2010cv01039 05/07/10
Brackett v. Commissioner of Social Security 2:2009cv01233 05/07/10
Brewer v. Runnels 2:2006cv00382 05/07/10
Brown v. Castillo, et al 1:2002cv06018 05/07/10
Brown v. Swarthout 2:2009cv03463 05/07/10
Brush v. Woodford et al 1:2007cv01009 05/07/10
Carey, et al v. USA, et al 2:2008cv02504 05/07/10
Cervantes v. P&B Capital LLC 1:2009cv01636 05/07/10
Charles Ray Robinson v. Warden 1:2008cv01312 05/07/10
Clifford L. Edwards v. Commissioner of Social Security 1:2009cv01002 05/07/10
County of Inyo v. Department of the Interior, Et Al. 1:2006cv01502 05/07/10
Curiel v. Henry Schein, Inc. 1:2008cv01580 05/07/10
Davis v. McDonal 2:2010cv00993 05/07/10
Derwin Jules Jackson v. W. Sullivan, Et Al. 1:2007cv00178 05/07/10
Diamond v. Mediterranean Shipping Company, et al, 2:2009cv01110 05/07/10
Doctors Medical Center of Modesto v. Global Excel Management, Inc. et al 1:2008cv01231 05/07/10
Doe v. University of the Pacific 2:2009cv00764 05/07/10
Edward Juliano Mullins v. Wenciker et al 1:2007cv00108 05/07/10
Exmundo v. Kane et al 1:2008cv00822 05/07/10
Farrell v. Barnes 2:2010cv00378 05/07/10
Fields v. Voss et al 1:2007cv00595 05/07/10
Foote v. Knowles et al 2:2008cv01029 05/07/10
Franco v. Adler 1:2009cv00325 05/07/10
Garber v. Mericle et al 2:2009cv03168 05/07/10
General Electric Capital Corporation et al v. Ten Forward Dining, Inc. et al 2:2009cv03296 05/07/10
Gilliam v. Hartley 1:2009cv01383 05/07/10
Gilliam v. Hartley 1:2009cv01383 05/07/10
Goethe vs Department of Motor Vehicles 2:2007cv01945 05/07/10
Gryder v. Commissioner of Social Security 2:2009cv02052 05/07/10
Gutierrez v. Sra et al 1:2010cv00264 05/07/10
Hamilton v. Gonzalez, et al 1:2009cv00569 05/07/10
Hassan v. Attorney General et al 1:2009cv00909 05/07/10
Hawkins v. Dobie et al 2:2009cv03081 05/07/10
Hayes v. D.K. Sisto 2:2009cv02433 05/07/10
Hertig v. Cambra, et al 1:2004cv05633 05/07/10
J & J Sports Productions, Inc. v. Bachman et al 2:2009cv01225 05/07/10
Johnson v. Calif Dept of Corrections et al 2:2010cv00282 05/07/10
Johnson v. Calif Dept of Corrections et al 2:2010cv00282 05/07/10
Johnson v. CSP Sacramento 2:2009cv03283 05/07/10
Johnson v. CSP Sacramento 2:2009cv03283 05/07/10
Johnson v. JP Morgan Chase Bank et al 1:2008cv00081 05/07/10
Johnson v. JP Morgan Chase Bank et al 1:2008cv00081 05/07/10
Johnson v. Martel et al 2:2009cv02103 05/07/10
Johnson v. Public Storage Franchise, Inc. et al 2:2009cv03197 05/07/10
Johnson v. Robinson 2:2008cv02046 05/07/10
Jones v. Burgett et al 2:2009cv03218 05/07/10
Jones v. Sacramento County Sheriff Department et al 2:2010cv00033 05/07/10
Kaur v. Fidelity National Title Ins Co. et al 2:2010cv00456 05/07/10
Keblansky v. Commissioner of Social Security 2:2010cv01041 05/07/10
Kemp v. American Home Mortgage Servicing, Inc. et al 2:2009cv01661 05/07/10
Kiedrowski v. Prosper et al 2:2010cv00324 05/07/10
Kiedrowski v. Prosper et al 2:2010cv00324 05/07/10
Kirk v. DVI - R/C 2:2009cv00668 05/07/10
Knanishu v. McGinness et al 2:2010cv00005 05/07/10
Kress et al v. PriceWaterhouse Coopers, LLP 2:2008cv00965 05/07/10
Lau v. California National Guard 2:2010cv00549 05/07/10
Leubner v. County of San Joaquin et al 2:2008cv00853 05/07/10
Leubner v. County of San Joaquin et al 2:2008cv00853 05/07/10
Lopez v. On Habeas Corpus 1:2010cv00690 05/07/10
M. et al v. Drycreek Joint Elemtnary School District et al 2:2010cv00944 05/07/10
Mansker v. McKinzy et al 2:2009cv03011 05/07/10
Marvin v. Commissioner of Social Security 2:2009cv02089 05/07/10
Matute v. Attorney General et al 1:2009cv01196 05/07/10
McMurray v. County of Sacramento et al 2:2009cv02245 05/07/10
McNally et al v. Eye Dog Foundation for the Blind, Inc. et al 1:2009cv01184 05/07/10
Meadows v. Fields et al 2:2008cv01204 05/07/10
Miller v. Jones 2:2010cv00834 05/07/10
Monroy v. Harrington 1:2010cv00781 05/07/10
Munson v. Adler et al 1:2009cv00185 05/07/10
Najar v. Felker et al 2:2009cv02893 05/07/10
Najar v. Felker et al 2:2009cv02893 05/07/10
National Petrochemical & Refiners Association et al v. Goldstene et al 1:2010cv00163 05/07/10
National Petrochemical & Refiners Association et al v. Goldstene et al 1:2010cv00163 05/07/10
Norbert v. McDonald et al 2:2009cv03500 05/07/10
Norsworthy v. Cate, et al 2:2009cv02989 05/07/10
Norsworthy v. Cate, et al 2:2009cv02989 05/07/10
Nunez v. Commissioner of Social Security 2:2009cv01975 05/07/10
O'Campo v. Heer et al 2:2010cv00155 05/07/10
Payne v. Brackett et al 2:2009cv02727 05/07/10
Penilton v. Woodford 2:2006cv01547 05/07/10
Phinney v. Salinas 2:2010cv00564 05/07/10
Pollard v. Anderson Police Dept et al 2:2009cv01955 05/07/10
Pollard v. Anderson Police Dept et al 2:2009cv01955 05/07/10
Pollard v. Harrington 1:2009cv01232 05/07/10
Rangel v. Nabil, et al 2:2002cv01633 05/07/10
Rocky Mountain Farmers Union et al v. Goldstene 1:2009cv02234 05/07/10
Rocky Mountain Farmers Union et al v. Goldstene 1:2009cv02234 05/07/10
Rocky Mountain Farmers Union et al v. Goldstene 1:2009cv02234 05/07/10
Rogers v. Scaffide, et al 2:2010cv00307 05/07/10
Rong v. Attorney General et al 1:2009cv01704 05/07/10
Ruben Odell Boulware v. Green Wall Gang, Et Al. 1:2005cv01565 05/07/10
Salazar v. Cate 2:2009cv03585 05/07/10
Salmon v. Adams 2:2010cv00595 05/07/10
Sanchez v. Walker, et al 2:2010cv00596 05/07/10
Scott v. Krammer et al 2:2007cv02729 05/07/10
Securities and Exchange Commission v. Vassallo et al 2:2009cv00665 05/07/10
Serger v. Adams et al 2:2008cv01480 05/07/10
Serrano v. California Correctional Deparment of Correction et al 2:2009cv02927 05/07/10
Shelton v. Commissioner of Social Security 2:2009cv02480 05/07/10
Smith v. United States of America, et al 2:2010cv00624 05/07/10
Snowden v. Adams 2:2010cv00651 05/07/10
Staffiero vs. Clark, et al., 2:2007cv01657 05/07/10
Stankewitz v. Adams 1:2006cv01220 05/07/10
Stone, et al v. Indymac FSB, et al 2:2009cv02394 05/07/10
Swearington v. Wedell, et al 2:2006cv01407 05/07/10
Tair Ten Funches v. Commissioner of Social Security 1:2010cv00819 05/07/10
Thomas v. California Interstate Commission for Adult Offender Supervision 2:2009cv03142 05/07/10
Thompson v. Miller 2:2010cv00279 05/07/10
Thompson v. Miller 2:2010cv00279 05/07/10
Tumbling v. Merced Irrigation District 1:2008cv01801 05/07/10
Turner v. California Forensic Medical Group et al 2:2009cv03040 05/07/10
United States of America v. 2005 Harley Davidson Road King Motorcycle 2:2009cv03534 05/07/10
United States of America v. Aproximately $19,000.00 in U.S. Currency et al 2:2010cv00496 05/07/10
USA v. Heath, et al 2:1990cv01585 05/07/10
Valenzuela v. People of The State of California 2:2010cv00973 05/07/10
Vargas v. Adler 1:2008cv01592 05/07/10
Vaughn v. Dickinson et al 2:2009cv03023 05/07/10
Watchers v. Big Lots Stores, et al 2:2009cv02395 05/07/10
Webb v. Trinity et al 2:2010cv00012 05/07/10
Whitfield v. Swarthout 2:2010cv00646 05/07/10
Williams v. Haviland et al 2:2010cv00377 05/07/10
Williams v. Haviland et al 2:2010cv00377 05/07/10
Williams v. Hill 1:2010cv00410 05/07/10
Wilson v. Dickinson et al 2:2009cv02667 05/07/10
Wilson v. Wever et al 2:2009cv02191 05/07/10
Wong et al v. American Servicing Company, Inc. et al 2:2009cv01506 05/07/10
Yang v. District Director of INS, et al. 1:2009cv01195 05/07/10
Yulaeva v. Greenpoint Mortgage Funding, Inc. et al 2:2009cv01504 05/07/10
Abdullah v. California Department of Corrections, et. al. 2:2006cv02378 05/06/10
Ahmad v. World Savings Bank, FSB et al 2:2009cv00520 05/06/10
Alfano et al v. BRP Inc. et al 2:2008cv01704 05/06/10
Alfano et al v. BRP Inc. et al 2:2008cv01704 05/06/10
Andreas v. Yates et al 1:2008cv01410 05/06/10
Avila, et al., v. Olivera Egg Ranch,LLC 2:2008cv02488 05/06/10
Azevedo v. City of Fresno et al 1:2009cv00375 05/06/10
Bailey v. The People of California 2:2010cv00084 05/06/10
Barber v. Lassen County, et al 2:2008cv00212 05/06/10
Barraza v. Commissioner of Social Security 2:2009cv01050 05/06/10
Bejaran v. California Department of Corrections and Rehabilitation 1:2009cv02231 05/06/10
Bibbs v. Walker et al 2:2008cv00033 05/06/10
Blackman v. Harrington et al 1:2010cv00380 05/06/10
Brownlee v. Murphy, et al 2:2002cv00214 05/06/10
California Sportfishing Protection Alliance et al v. Syar Industries Inc. 2:2009cv02745 05/06/10
Chavez et al v. Bank of America, N.A. et al 1:2009cv02133 05/06/10
Chavez v. Office of Patients Rights et al 1:2010cv00777 05/06/10
Clark v. Rolling Hills Casino et al 2:2009cv01948 05/06/10
Cortez v. BAC Home Loans Servicing, LP et al 2:2009cv03611 05/06/10
Cramer v. Dickinson et al 1:2008cv00375 05/06/10
Cramer v. Target Corporation et al 1:2008cv01693 05/06/10
David Laughing Horse Robinson et al v. U.S. Department of Interior et al 1:2009cv01977 05/06/10
Del Don Jr. v. United States Department of Agriculture et al 1:2010cv00126 05/06/10
Dumas v. City of Elk Grove et al 2:2009cv01573 05/06/10
Dynes v. Fresno County Detention Center Maintenance Staff 1:2010cv00748 05/06/10
Fleming v. Cate 1:2009cv01765 05/06/10
Garcia v. Fresno Correctional Dept. 1:2010cv00654 05/06/10
Garcia v. Joaquin et al 1:2010cv00730 05/06/10
Givens v. Paramount Mortgage et al 2:2009cv03269 05/06/10
Glass v. Beer, et al 1:2004cv05466 05/06/10
Gomez v. Union Pacific Railroad Company 2:2009cv00225 05/06/10
Gomez v. Union Pacific Railroad Company 2:2009cv00225 05/06/10
Gonzales et al v. Cate et al 1:2006cv01420 05/06/10
Graham v. Sullivan, et al 1:2003cv06353 05/06/10
Great American Insurance Company v. M.J. Menefee Construction, Inc., Et Al. 1:2006cv00392 05/06/10
Gutierrez v. Empire Mortgage Corporation et al 1:2010cv00079 05/06/10
Healy v. Commissioner of Social Security et al 2:2009cv01378 05/06/10
Jenkins v. Perry et al 1:2007cv01223 05/06/10
Johnson v. Chkuaseli et al 2:2009cv02870 05/06/10
Johnson v. Fulton-El Camino Recreation & Parks District 2:2009cv01930 05/06/10
Johnson v. JP Morgan Chase Bank et al 1:2008cv00081 05/06/10
Johnson v. Makinen et al 2:2009cv00796 05/06/10
Johnson v. Supercuts Corporate Shops, Inc. et al 2:2010cv00076 05/06/10
Johnson, Jr. v. Walker 2:2009cv01455 05/06/10
Lal v. McDonald et al 2:2010cv01051 05/06/10
Landau v. Voss et al 1:2007cv00815 05/06/10
Lau v. California Government Code 68635 2:2010cv00297 05/06/10
Lau v. Lockyer 2:2009cv03146 05/06/10
Leon v. Hartley 1:2009cv00445 05/06/10
Loskot v. Mathews et al 2:2009cv00011 05/06/10
Martella Auction Company, Inc. v. TriState Construction, Inc. et al 1:2010cv00258 05/06/10
Mason v MortgageIT, Inc. et al 2:2010cv00986 05/06/10
Mason v. Indymac Federal Bank et al 2:2009cv01836 05/06/10
Maynez et al v. Garza et al 1:2009cv01422 05/06/10
McBrien v. On Habeas Corpus 1:2010cv00742 05/06/10
Meador v. Wedell et al 2:2010cv00901 05/06/10
Meyer v. Commissioner of Social Security 1:2009cv01448 05/06/10
Michael Fernandes v. McDonald's Corporation 1:2009cv01914 05/06/10
Michael Fernandes v. McDonald's Corporation 1:2009cv01914 05/06/10
Microsoft Corporation v. BC Tech Gear, et al 1:2009cv02094 05/06/10
Monroe v. Zimmer US, Inc. et al 2:2008cv02944 05/06/10
Montes v. Adams 1:2009cv01214 05/06/10
National Petrochemical & Refiners Association et al v. Goldstene et al 1:2010cv00163 05/06/10
Neidinger v. Salinas 2:2009cv02031 05/06/10
North American Specialty Insurance Company v. Campbell et al 2:2009cv02061 05/06/10
Okwu v. California Department of Transportation 2:2010cv00653 05/06/10
Orr v Hernandez 2:2008cv00472 05/06/10
Pagan v. Hartley 1:2009cv00768 05/06/10
Parmenter v. Department of Corrections 2:2009cv01664 05/06/10
Parthemore v. Martel et al 2:2009cv02330 05/06/10
Perinatal Medical Group, Inc., et al. v. Children's Hospital Central CA, Inc. 1:2009cv01273 05/06/10
Pollard v. Superior Court Shasta 2:2009cv02625 05/06/10
Rhoden v. Mayberg et al 1:2009cv01890 05/06/10
Rider v. Goldy et al 2:2009cv02675 05/06/10
Rider v. Goldy et al 2:2009cv02675 05/06/10
Rocky Mountain Farmers Union et al v. Goldstene 1:2009cv02234 05/06/10
Rodriguez v. Martel 2:2009cv03205 05/06/10
Ruben Odell Boulware v. Green Wall Gang, Et Al. 1:2005cv01565 05/06/10
Samuels v. Ahlin et al 1:2010cv00585 05/06/10
San Luis & Delta-Mendota Water Authority et al v. Locke et al 1:2009cv01053 05/06/10
Shepard v. United Healthcare Insurance Company 2:2009cv00843 05/06/10
Singh et al v. Heinauer et al 1:2010cv00365 05/06/10
Smith v. Cargill Meat Solutions Corporation 1:2009cv01155 05/06/10
Smith v. City of Bakersfield et al 1:2009cv01640 05/06/10
Solomon et al v. E-LOAN, INC. et al 2:2010cv00257 05/06/10
South Shore Ranches, LLC, et al v. JMZ Development Company, Inc. 1:2009cv00105 05/06/10
Terbush, et al v. USA 1:2002cv05509 05/06/10
United States of America v. California Department of Corrections and Rehabilitation 2:2009cv01229 05/06/10
United States of America v. California Department of Corrections and Rehabilitation 2:2009cv01229 05/06/10
United States of America v. Hinkle et al 2:2010cv00746 05/06/10
United States of America et al v. Jenkins 2:2010mc00019 05/06/10
United States of America v. Approximately $10,923.00 in U.S. Currency 1:2010cv00787 05/06/10
United States of America v. Approximately $10,923.00 in U.S. Currency 1:2010cv00787 05/06/10
USA, et al v. Iron Mountain Mines, et al 2:1991cv00768 05/06/10
Villasenor v. Martell 2:2009cv02324 05/06/10
Wallen v. I Love Sushi Japanese Bistro Inc. 1:2010cv00190 05/06/10
Whittle v. Wells Fargo Bank, N.A., et al. 1:2010cv00429 05/06/10
Williams et al vs Bank of America, et al 2:2009cv03060 05/06/10
Wishart v. Adler et al 1:2009cv01118 05/06/10
Yocom v. Curry 1:2009cv01150 05/06/10
Andrews Farms et al v. Calcot Ltd et al 1:2007cv00464 05/05/10
Antonioa Smith v. Merced County 1:2009cv01816 05/05/10
ARC Students for Liberty Campaign v. Los Rios Community College District 2:2009cv02446 05/05/10
Blocker v. Martell 2:2009cv00883 05/05/10
Boyd v. Estioco et al 1:2007cv01541 05/05/10
Bravo v. The United States Life Insurance Company in the City of New York 2:2008cv01982 05/05/10
California Earthquake Authority v. Metropolitan West Securities LLC, et al 2:2010cv00291 05/05/10
Cartwright, et al. v. Viking Industries, Inc. 2:2007cv02159 05/05/10
Casey v. Adams 1:2007cv01733 05/05/10
Cassells v. Liggett 2:2010cv00775 05/05/10
Chang v. Pomeroy et al 2:2008cv00657 05/05/10
Chavez v. Lewis 1:2002cv05320 05/05/10
Coats v. McGuiness, et al 2:2008cv00476 05/05/10
Combsm et al., v. Stryker Corp, et al., 2:2009cv02018 05/05/10
Deborah Curtis v. American Home Mortgage Servicing Inc., 1:2009cv01608 05/05/10
Del Valle et al v. Mortgage Bank of California et al 1:2009cv01316 05/05/10
Dyess v. Tehachapi Unified School District, et al. 1:2010cv00166 05/05/10
Evans v. Sisto et al 2:2009cv00292 05/05/10
Expert Microsystems, Inc. v. University of Chicago, et al 2:2009cv00586 05/05/10
Fosselman v. Evans 1:2010cv00328 05/05/10
Garrett v. Myers et al 1:2010cv00779 05/05/10
Glover v. Commissioner of Social Security 2:2009cv00898 05/05/10
Harold Walker et al v. P.L. Vazquez, etal 1:2009cv02123 05/05/10
Hernandez v. Wells Fargo Bank, N.A. et al 1:2009cv01225 05/05/10
Hillmon v. California Department of Corrections et al 1:2009cv01589 05/05/10
Hinsley v. Portillo et al 1:2009cv00504 05/05/10
Hoover v. Commissioner of Social Security 2:2009cv02586 05/05/10
Hoskings v. Vasquez 1:2005cv01430 05/05/10
Johnson v. JP Morgan Chase Bank et al 1:2008cv00081 05/05/10
Jones v. Burgett et al 2:2009cv03218 05/05/10
Kane v. Pierce 1:2006cv01564 05/05/10
Kassem v. Chertoff et al 1:2008cv00010 05/05/10
Kelly v. Sogge et al 2:2008cv01823 05/05/10
Kenny Calihan v. Adams et al 1:2009cv01373 05/05/10
King v. California Department of Corrections et al 1:2009cv01014 05/05/10
Kotrous v. Goss-Jewett Co North, et al 2:2002cv01520 05/05/10
Lema v. Carrows Restaurant, Inc. 1:2010cv00359 05/05/10
Lomako v. Junious et al 1:2009cv01056 05/05/10
Madrigal v. Hartley 1:2009cv00531 05/05/10
Marcos v. Anglea et al 1:2009cv02080 05/05/10
Martinez v. Hoover, et al 2:2009cv00680 05/05/10
Medeiros v. Merced County Sheriff Deputy Clark et al 1:2009cv01177 05/05/10
Miller v. Williams et al 2:2009cv03598 05/05/10
Mitchell v. Hernandez et al 1:2007cv01322 05/05/10
Mitchell v. Malfi 1:2006cv00387 05/05/10
Myers et al v. Waste Management, Inc. et al 1:2010cv00560 05/05/10
National Petrochemical & Refiners Association et al v. Goldstene et al 1:2010cv00163 05/05/10
Ndulue v. Fremont-Rideout Health Group, et al. 2:2008cv01696 05/05/10
Nielsen v. Trofholz Technologies, et al 2:2009cv00960 05/05/10
Ontiveros v. Subia 2:2007cv01441 05/05/10
Pavey v. Marriott International, Inc. et al 2:2009cv03206 05/05/10
Perez v. Clark et al 1:2008cv00466 05/05/10
Peterson v. State of California, Department of Corrections and Rehabilitation et al 1:2006cv00349 05/05/10
Phillippi v. AstraZeneca Pharmaceuticals LP et al 2:2008cv02445 05/05/10
Reclamation Dis 2116, et al v. Arcady Oil Company, et al 2:1996cv01473 05/05/10
Robert Carson v. City of Fresno, et al 1:2008cv00468 05/05/10
Robert Wehr v. Commissioner of Social Security 1:2009cv02124 05/05/10
Rocky Mountain Farmers Union et al v. Goldstene 1:2009cv02234 05/05/10
Romero v. Yates et al 1:2008cv00669 05/05/10
Sanders v. Swarthout 2:2010cv00992 05/05/10
Securities and Exchange Commission v. Vassallo et al 2:2009cv00665 05/05/10
Seechan v. Commissioner of Social Security 1:2009cv00610 05/05/10
Sinclair et al v. Fox Hollow, et al 1:2003cv05439 05/05/10
Staffiero vs. Clark, et al., 2:2007cv01657 05/05/10
Team One Networking v. Eatmon et al 2:2009cv00903 05/05/10
Timothy Crayton v. Rochester Medical Corporation 1:2007cv01318 05/05/10
Todd v. Stryker Corporation et al 2:2009cv01509 05/05/10
Tracey v. Commissioner of Social Security 1:2009cv01527 05/05/10
United States of America v. 2005 Harley Davidson Road King Motorcycle 2:2009cv03534 05/05/10
United States of America v. DE KELLIS 2:2009cv01852 05/05/10
United States of America v. Approximately $24,260.00 in U.S. Currency 1:2009cv01445 05/05/10
United States of America v. Approximately $5,173.45 in U.S. Currency seized from Wells Fargo Bank Account Number 3444347300 2:2010mc00046 05/05/10
United States of America v. Real Property Located at 17 Coon Creek Road, Hawkins Bar, California 2:2009cv01937 05/05/10
Uribe v. McKesson et al 1:2008cv01285 05/05/10
Valdez v. Adler 1:2010cv00772 05/05/10
Watchers v. Big Lots Stores, et al 2:2009cv02395 05/05/10
Watts v. Adams 2:2010cv00277 05/05/10
Williams v. Goman et al 2:2009cv00491 05/05/10
Xiong v. Commissioner of Social Security 2:2008cv02110 05/05/10
Zamora v. Department of Homeland Security et al 2:2009cv01292 05/05/10
Acosta v. Suryadevara 1:2008cv01238 05/04/10
Acosta v. Suryadevara 1:2008cv01238 05/04/10
Afato et al v. Clinton et al 2:2010cv00060 05/04/10
Allen et al v. Kumagai et al 1:2006cv01469 05/04/10
Anderson v. Blockbuster Inc. 2:2010cv00158 05/04/10
Anderson v. Thomas 2:2007cv02566 05/04/10
Andreozzi v. California Department of Corrections et al 2:2009cv01192 05/04/10
Andreozzi v. California Department of Corrections et al 2:2009cv01192 05/04/10
Baker v. Kramer 2:2008cv00311 05/04/10
Banks v. Hedgpeth 1:2008cv00899 05/04/10
Barksdale v. Los Angeles County Sheriff's Dept et al 1:2010cv00747 05/04/10
Barrera v. Hubbard et al 2:2009cv03220 05/04/10
Battershell, et al., v. SMUD et al 2:2009cv02533 05/04/10
Beall v. Second Judicial District Court et al 2:2009cv03164 05/04/10
Beard v. Romero 2:2009cv02442 05/04/10
Brooks v. Felker 2:2008cv02512 05/04/10
Bun v. Felker et al 2:2009cv00631 05/04/10
Burts v. Gamberg et al 2:2008cv03153 05/04/10
California Law Enforcement Association v Anderson 2:2009cv03569 05/04/10
Calkins v. Commissioner of Social Security 2:2008cv02385 05/04/10
Carlson v. Hansen, et al. 1:2010cv00759 05/04/10
Carrasco v. California Board of Parole Hearings 1:2010cv00744 05/04/10
Carter v. Dawson et al 1:2007cv01325 05/04/10
Cejas v. State of California 2:2010cv00995 05/04/10
Charity v. Brown et al 2:2009cv01968 05/04/10
Chavez v. Lewis 1:2002cv05320 05/04/10
City of Fresno v. Boeing Company, et al. 1:2006cv01559 05/04/10
Cramer v. Target Corporation et al 1:2008cv01693 05/04/10
Croft v. Commissioner of Social Security 2:2009cv01656 05/04/10
Davis v. Ramen et al 1:2006cv01216 05/04/10
Duhn Oil Tool Inc v. Cooper Cameron Corporation 1:2005cv01411 05/04/10
Dynes v. Medina, et al 1:2008cv00136 05/04/10
Dynes v. Medina, et al 1:2008cv00136 05/04/10
Edward v McDonald et al 2:2010cv00979 05/04/10
Four in One Company, Inc. v. SK Foods, L.P. et al 2:2008cv03017 05/04/10
Fritz v. Potter 2:2008cv02340 05/04/10
Garcia v. Fresno Correctional Dept. 1:2010cv00522 05/04/10
Gassoway v. Dawson et.al. 2:2008cv00652 05/04/10
Gipbsin v. Kernan et al 2:2007cv00157 05/04/10
Glover, et al v. Cate, et al 2:2010cv00430 05/04/10
Goolsby v. Carrasco et al 1:2009cv01650 05/04/10
Graham v. Runnels, et al 2:2007cv02291 05/04/10
Hamilton v. Moore, et al 1:2004cv05129 05/04/10
Hanna v. Lattimore 1:2010cv00745 05/04/10
Harris v. High Desert State Prison et al 2:2010cv01015 05/04/10
Harris v. High Desert State Prison et al 2:2010cv01031 05/04/10
Heilman v. Vokufka et al 2:2008cv02788 05/04/10
Hendon v. Reed et al 1:2005cv00790 05/04/10
Hudson v. Nepumuceno 2:2009cv03420 05/04/10
Jackline v. Unknown 2:2009cv01578 05/04/10
Jackson v. City of Oroville et al 2:2009cv00398 05/04/10
Jackson v. Swarthout 2:2010cv00504 05/04/10
Jadwin v. County of Kern, et al. 1:2007cv00026 05/04/10
Jo v. Six Unknown Names Agents et al 1:2010cv00725 05/04/10
Johnson v. Runnels et al 2:2005cv02123 05/04/10
Johnson v. Secret River Inc., et al 2:2010cv00792 05/04/10
Johnson v. Washington Mutual, et al 1:2009cv00929 05/04/10
Keo v. Commissioner of Social Security 2:2009cv02019 05/04/10
Kirk v. Rackley et al 2:2009cv01866 05/04/10
Kriske v. Evans 2:2008cv01683 05/04/10
Lamon v. Adams et al 1:2009cv00205 05/04/10
Lamon v. Adams et al 1:2007cv01390 05/04/10
Lee v. Carey et al 2:2006cv00813 05/04/10
Lima v. Opperud, et al 2:2008cv00271 05/04/10
Lopez et al v. Wachovia Mortgage et al 2:2009cv01510 05/04/10
Lopez v. Carey 2:2007cv00226 05/04/10
Magana v. Cate 1:2010cv00379 05/04/10
Marcos v. Anglea et al 1:2009cv02080 05/04/10
Marsh v. Vegianelli, et al. 1:2009cv01282 05/04/10
McNeil v. Internal Revenue Service 2:2008cv02432 05/04/10
Mitchell v. Skyline Homes 2:2009cv02241 05/04/10
Molinares v. Adler 1:2009cv01964 05/04/10
Munoz v. People of California 1:2010cv00206 05/04/10
National Petrochemical & Refiners Association et al v. Goldstene et al 1:2010cv00163 05/04/10
National Petrochemical & Refiners Association et al v. Goldstene et al 1:2010cv00163 05/04/10
Nelson v. Murphy 2:2009cv00308 05/04/10
Nwozuzu v. Runnels et al 2:2005cv01938 05/04/10
Oba Lee Frelimo v. J. Garcia, et al 1:2008cv01040 05/04/10
Ochoa v. Martel 1:2010cv00780 05/04/10
Ochoa v. Martel 2:2010cv00987 05/04/10
Pandora Jewelry, LLC v. Bello Paradiso, LLC 2:2008cv03108 05/04/10
Phillips v. Fulton-El Camino Recreation & Parks District 2:2009cv01933 05/04/10
Pierce v. Gonzales et al 1:2010cv00285 05/04/10
Pierce v. Gonzales et al 1:2010cv00285 05/04/10
Quintana v. Swarthout et al 2:2009cv03221 05/04/10
Richardson v. Sisto et al 2:2010cv00025 05/04/10
Riel v. Woodford 2:2001cv00507 05/04/10
Robertson v. Singh et al 2:2009cv02648 05/04/10
Robertson v. Singh et al 2:2009cv02648 05/04/10
Rocha v. Gonzalez 1:2010cv00776 05/04/10
Rocky Mountain Farmers Union et al v. Goldstene 1:2009cv02234 05/04/10
Rodriguez v. City of Stockton et al 2:2010cv00204 05/04/10
Ronald Everett v. James A. Yates 1:2010cv00741 05/04/10
Rosquist v. Latamore et al 1:2009cv01309 05/04/10
Ross v. Commissioner of Social Security 2:2009cv01742 05/04/10
Salazar v. Locke 2:2010cv01033 05/04/10
Shead v. Vang et al 1:2009cv00006 05/04/10
Shinn v. Hunt & Henriques 2:2009cv02585 05/04/10
Singleton v. Hedgepath et al 1:2008cv00095 05/04/10
Smith v. Kramer et al 2:2009cv00379 05/04/10
Smith v. Lubken, et al. 1:2010cv00348 05/04/10
Soria v. Giurbino 2:2009cv00102 05/04/10
Sotelo v. Brown, et al. 1:2010cv00756 05/04/10
Soto v. Vatencia et al 2:2009cv02604 05/04/10
Soto v. Vatencia et al 2:2009cv02604 05/04/10
Stockton v. State of California et al 1:2010cv00774 05/04/10
Tafoya v. Subia 2:2007cv02389 05/04/10
Thao v. Commissioner of Social Security 2:2008cv03061 05/04/10
Thomas v. The Superior Court of Madera County 1:2010cv00200 05/04/10
Thompson v. Mauck, et al 2:2009cv03478 05/04/10
Tipaksorn Tungjunyatham v. Mike Johanns 1:2006cv01764 05/04/10
Torres v. Hartley 1:2010cv00773 05/04/10
Towner v. Knowles et al 2:2008cv02823 05/04/10
Townsend v. Sisto et al 2:2009cv02342 05/04/10
United States of America v. Weldon et al 1:2008cv01643 05/04/10
United States v. Approximately $6,000.00 in U.S. Currency 1:2009cv01755 05/04/10
Vance v. Commissioner of Social Security 1:2010cv00782 05/04/10
Vasquez vs. Commissioner of SSA 2:2008cv01227 05/04/10
Velasquez v. Lattimore 1:2010cv00614 05/04/10
Walker v. Cate et al 2:2010cv01093 05/04/10
Wallace v. Brown et al 2:2009cv00502 05/04/10
Wallace v. Brown et al 2:2009cv00502 05/04/10
West v. Santos-Rivera 2:2009cv02258 05/04/10
Williams v. Haviland et al 2:2009cv02665 05/04/10
Wilson v. Western Progressive, LLC et al 2:2010cv00171 05/04/10
Wolfe v. Purcell et al 2:2009cv01946 05/04/10
Zarate v. Warden, CSATF/SP 1:2010cv00719 05/04/10
Adoma v. The University of Phoenix, Inc. et al 2:2010cv00059 05/03/10
Aleurone Corporation. v. Ventria Bioscience, Incorporated 2:2010cv00501 05/03/10
Arroyo v. State of California, et al 2:2008cv01493 05/03/10
Aspex Eyewear, Inc. v. Vision Service Plan et al 2:2010cv00632 05/03/10
Bell v. Department of Corrections and Rehabilitation 1:2010cv00770 05/03/10
Bell v. Department of Corrections and Rehabilitation 2:2010cv00975 05/03/10
Bell v. Director of CDCR et al 2:2010cv00976 05/03/10
Bell v. Director of CDCR et al 1:2010cv00771 05/03/10
Beth Atkinson, et al v. County of Tulare, et al. 1:2009cv00789 05/03/10
Black v. Stafford et al 2:2010cv00567 05/03/10
Boparai v. Shinseki et al 1:2009cv01164 05/03/10
Boparai v. Shinseki et al 1:2009cv01164 05/03/10
Brown v. Clark 1:2009cv02145 05/03/10
Brummett v. Sillen et al 1:2006cv01255 05/03/10
Bryan E Ransom v. Johnson, Et Al. 1:2005cv00086 05/03/10
Burgess v. W.M. Bolthouse Farms, Inc. 1:2008cv01287 05/03/10
Campbell v. Jacquez 2:2010cv00114 05/03/10
Colon v. People of The State of California 2:2007cv01400 05/03/10
Cowans v. Hartley 1:2008cv01840 05/03/10
Crawley v. Kramer et al 2:2007cv01288 05/03/10
Douglas v. Martel, et al 2:2009cv03411 05/03/10
Douglas v. Martel, et al 2:2009cv03411 05/03/10
Esfahani v. Attorney General et al 1:2009cv01965 05/03/10
Francis v. Cate, et al. 2:2009cv00640 05/03/10
Fregoso v. Harrington 1:2009cv01067 05/03/10
Gaines v. Adams 2:2010cv00429 05/03/10
Garcia v. Fresno County Jail Courthouse 1:2010cv00562 05/03/10
George v. Commissioner of Social Security 1:2008cv01928 05/03/10
Gilmore et al v. Union Pacific Railroad Company, et al., 2:2009cv02180 05/03/10
Godinez v. Lara et al 1:2010cv00303 05/03/10
Hackett v. City Of Fresno et al 1:2009cv00855 05/03/10
Hendon v. Knowles et al 2:2009cv02935 05/03/10
Hunter v. Beagley et al 1:2010cv00067 05/03/10
Jo v. Six Unknown Names Agents et al 1:2010cv00753 05/03/10
Johnson v. Runnels et al 2:2005cv02123 05/03/10
Jones v. Martel 2:2008cv01933 05/03/10
Jones v. Martel et al 2:2009cv01208 05/03/10
Karr v. Sisto et al 2:2007cv00510 05/03/10
Kelley v. Grass Valley Police Department et al 2:2009cv01679 05/03/10
Kelley v. Grass Valley Police Department et al 2:2009cv01679 05/03/10
Koch v. Neubarth et al 1:2009cv00116 05/03/10
L.H. et al v. Schwarzenegger et al 2:2006cv02042 05/03/10
Lenix v. Uribe, Jr. 1:2009cv01683 05/03/10
Maria-Gollihar v. County of San Joaquin, et al 2:2010cv00135 05/03/10
Martinez v. Curry 1:2007cv00512 05/03/10
Martinez v. Tilton et al 1:2008cv01777 05/03/10
Mason v MortgageIT, Inc. et al 2:2010cv00986 05/03/10
McCrea v. Ramirez, et al 2:2010cv00061 05/03/10
McCrea v. Ramirez, et al 2:2010cv00061 05/03/10
McCrea v. Ramirez, et al 2:2010cv00061 05/03/10
McElroy v. Martel 2:2009cv02112 05/03/10
McNeely v. Swarthout 2:2010cv00728 05/03/10
Mejia-Raigoza v. Commissioner of Social Security 1:2009cv00441 05/03/10
Mendez v. Small 2:2010cv00984 05/03/10
Mendez v. Small 1:2010cv00767 05/03/10
Moua v. Commissioner of Social Security 1:2009cv00713 05/03/10
Nguon v. Walker 2:2010cv00704 05/03/10
Nichols v. County of Sacramento, et al. 2:2007cv02759 05/03/10
People of The State of California v. Cardoza 1:2010cv00673 05/03/10
Peterson v. State of California, Department of Corrections and Rehabilitation et al 1:2006cv00349 05/03/10
Prater v. Kramer et al 2:2006cv01993 05/03/10
Proctor v. Adams 1:2009cv00617 05/03/10
Propps v. Commissioner of Social Security 1:2009cv01017 05/03/10
Puckett v. North Kern State Prison Employees 1:2008cv01243 05/03/10
Ranteesi v. Grounds 2:2010cv00439 05/03/10
Rasheed v. Castro et al 2:2009cv03300 05/03/10
Rasheed v. The United States 2:2010cv00021 05/03/10
Rodriguez v. Walker 1:2009cv01376 05/03/10
Romero v. Commissioner of Social Security 1:2010cv00766 05/03/10
Saephanh v. Commissioner of Social Security 1:2010cv00769 05/03/10
San Luis & Delta-Mendota Water Authority et al v. Salazar et al 1:2009cv00407 05/03/10
Sanchez v. Adams 1:2009cv00014 05/03/10
Sanchez v. Salinas 2:2010cv00737 05/03/10
Smith v. Ayers 1:2009cv00711 05/03/10
Smith v. Sahota et al 2:2010cv00762 05/03/10
Stansbury v. Rios 1:2009cv00485 05/03/10
Stewart v. Lattimore et al 1:2009cv00965 05/03/10
Stewart v. Lattimore et al 1:2009cv00965 05/03/10
Stoffer v. Reniff 2:2009cv03294 05/03/10
Storman v. The California Department of Health Care Services et al 2:2009cv02565 05/03/10
Swanson v. Martel et al 2:2009cv03245 05/03/10
Thurston v. Adams 1:2009cv00672 05/03/10
Tompkins v. Stephens et al 2:2007cv02346 05/03/10
Tompkins v. Stephens et al 2:2007cv02346 05/03/10
Torres v. Adams 1:2009cv00995 05/03/10
Turner v. Taylor et al 2:2008cv01846 05/03/10
USA v. Approximately $29,000.00 in U.S. Currency et al 1:2008cv00988 05/03/10
Valdivia, et al v. Schwarzenegger, et al 2:1994cv00671 05/03/10
Walker v. Citibank et al 2:2009cv03171 05/03/10
Washington v. Aguirre et al 1:2008cv00275 05/03/10
William D. Johns v. MTC Distributing et al 1:2009cv02073 05/03/10
William D. Johns v. MTC Distributing et al 1:2009cv02073 05/03/10
Williams v. Walker et al 2:2007cv02385 05/03/10
Wordtech Systems Inc v. Integrated Network, et al 2:2004cv01971 05/03/10